<?xml version="1.0" encoding="UTF-8" standalone="no" ?>
<gpx xmlns="http://www.topografix.com/GPX/1/1" xmlns:xsi="http://www.w3.org/2001/XMLSchema-instance" xsi:schemaLocation="http://www.topografix.com/GPX/1/1 http://www.topografix.com/GPX/1/1/gpx.xsd" version="1.1" creator="VisuGPX - https://www.visugpx.com">
  <metadata>
    <name>L'Espérou - Saint-Sauveur Camprieu</name>
    <desc><![CDATA[2015-05 - L'Espérou - Val du Bonheur - Saint-Sauveur Camprieu - Col de la Caumette - Prat Peyrot

[b]album[/b] : [url]https://goo.gl/photos/yVBEWTeuLpaaSdHc7[/url]

[img]https://1.bp.blogspot.com/-q4GEd9HfFII/WNQowOT8daI/AAAAAAAARSE/bTi-srH4K1I5g4bz-gzXrxrhXZ4E-bE2gCLcB/s1600/2015-05_Aigoual_4000-marches_val-Bonheur_photos_2j.JPG[/img]

[b]Idées de randonnées dans la même région[/b]
Parcours : [url]https://www.visugpx.com/membres/24856/montagne/aigoual/[/url]
Photos : [url]https://jcvertygo.blogspot.com/p/mont-aigoual.html[/url]]]></desc>
  </metadata>
  <trk>
    <name><![CDATA[L'Espérou - Saint-Sauveur Camprieu_1]]></name>
    <trkseg>
      <trkpt lat="44.09264" lon="3.5469">
        <ele>1226.6</ele>
        <time>2015-05-17T08:16:37Z</time>
      </trkpt>
      <trkpt lat="44.09261" lon="3.54699">
        <ele>1226.6</ele>
        <time>2015-05-17T08:16:42Z</time>
      </trkpt>
      <trkpt lat="44.09261" lon="3.54699">
        <ele>1226.6</ele>
        <time>2015-05-17T08:16:47Z</time>
      </trkpt>
      <trkpt lat="44.09269" lon="3.54678">
        <ele>1226.7734352865</ele>
        <time>2015-05-17T08:17:06Z</time>
      </trkpt>
      <trkpt lat="44.09269" lon="3.54677">
        <ele>1226.7734352865</ele>
        <time>2015-05-17T08:17:14Z</time>
      </trkpt>
      <trkpt lat="44.09274" lon="3.54663">
        <ele>1232.9168078616</ele>
        <time>2015-05-17T08:17:21Z</time>
      </trkpt>
      <trkpt lat="44.0927" lon="3.54674">
        <ele>1239.0668354859</ele>
        <time>2015-05-17T08:17:37Z</time>
      </trkpt>
      <trkpt lat="44.09272" lon="3.54692">
        <ele>1245.0666439191</ele>
        <time>2015-05-17T08:17:51Z</time>
      </trkpt>
      <trkpt lat="44.09288" lon="3.5471">
        <ele>1250.5901999586</ele>
        <time>2015-05-17T08:18:39Z</time>
      </trkpt>
      <trkpt lat="44.09284" lon="3.54703">
        <ele>1250.5901999586</ele>
        <time>2015-05-17T08:18:57Z</time>
      </trkpt>
      <trkpt lat="44.09281" lon="3.54698">
        <ele>1255.5387907632</ele>
        <time>2015-05-17T08:19:02Z</time>
      </trkpt>
      <trkpt lat="44.09264" lon="3.54692">
        <ele>1259.8704743203</ele>
        <time>2015-05-17T08:19:17Z</time>
      </trkpt>
      <trkpt lat="44.09295" lon="3.5465">
        <ele>1263.3801339622</ele>
        <time>2015-05-17T08:19:55Z</time>
      </trkpt>
      <trkpt lat="44.09361" lon="3.54645">
        <ele>1265.8854988424</ele>
        <time>2015-05-17T08:20:55Z</time>
      </trkpt>
      <trkpt lat="44.09363" lon="3.54648">
        <ele>1265.8854988424</ele>
        <time>2015-05-17T08:20:57Z</time>
      </trkpt>
      <trkpt lat="44.09364" lon="3.54649">
        <ele>1265.8854988424</ele>
        <time>2015-05-17T08:21:02Z</time>
      </trkpt>
      <trkpt lat="44.09365" lon="3.54643">
        <ele>1265.8854988424</ele>
        <time>2015-05-17T08:21:22Z</time>
      </trkpt>
      <trkpt lat="44.09358" lon="3.54642">
        <ele>1267.9353547456</ele>
        <time>2015-05-17T08:21:27Z</time>
      </trkpt>
      <trkpt lat="44.09352" lon="3.54643">
        <ele>1267.9353547456</ele>
        <time>2015-05-17T08:21:32Z</time>
      </trkpt>
      <trkpt lat="44.09346" lon="3.54643">
        <ele>1269.0934435763</ele>
        <time>2015-05-17T08:21:37Z</time>
      </trkpt>
      <trkpt lat="44.0934" lon="3.54641">
        <ele>1269.0934435763</ele>
        <time>2015-05-17T08:21:42Z</time>
      </trkpt>
      <trkpt lat="44.0933" lon="3.54638">
        <ele>1269.487022283</ele>
        <time>2015-05-17T08:21:47Z</time>
      </trkpt>
      <trkpt lat="44.09327" lon="3.54633">
        <ele>1269.487022283</ele>
        <time>2015-05-17T08:21:52Z</time>
      </trkpt>
      <trkpt lat="44.09313" lon="3.54638">
        <ele>1269.3223024422</ele>
        <time>2015-05-17T08:21:57Z</time>
      </trkpt>
      <trkpt lat="44.09301" lon="3.5464">
        <ele>1269.0095415015</ele>
        <time>2015-05-17T08:22:02Z</time>
      </trkpt>
      <trkpt lat="44.09296" lon="3.54633">
        <ele>1269.0095415015</ele>
        <time>2015-05-17T08:22:07Z</time>
      </trkpt>
      <trkpt lat="44.09288" lon="3.54628">
        <ele>1268.4600778752</ele>
        <time>2015-05-17T08:22:12Z</time>
      </trkpt>
      <trkpt lat="44.09281" lon="3.54626">
        <ele>1268.4600778752</ele>
        <time>2015-05-17T08:22:17Z</time>
      </trkpt>
      <trkpt lat="44.09277" lon="3.54623">
        <ele>1267.8862178535</ele>
        <time>2015-05-17T08:22:22Z</time>
      </trkpt>
      <trkpt lat="44.09273" lon="3.54617">
        <ele>1267.8862178535</ele>
        <time>2015-05-17T08:22:27Z</time>
      </trkpt>
      <trkpt lat="44.0927" lon="3.54618">
        <ele>1267.8862178535</ele>
        <time>2015-05-17T08:22:32Z</time>
      </trkpt>
      <trkpt lat="44.09267" lon="3.5461">
        <ele>1267.2878635934</ele>
        <time>2015-05-17T08:22:37Z</time>
      </trkpt>
      <trkpt lat="44.09267" lon="3.54603">
        <ele>1267.2878635934</ele>
        <time>2015-05-17T08:22:42Z</time>
      </trkpt>
      <trkpt lat="44.09268" lon="3.54596">
        <ele>1266.4927133285</ele>
        <time>2015-05-17T08:22:47Z</time>
      </trkpt>
      <trkpt lat="44.09269" lon="3.54591">
        <ele>1266.4927133285</ele>
        <time>2015-05-17T08:22:52Z</time>
      </trkpt>
      <trkpt lat="44.09269" lon="3.54588">
        <ele>1266.4927133285</ele>
        <time>2015-05-17T08:22:57Z</time>
      </trkpt>
      <trkpt lat="44.09269" lon="3.5458">
        <ele>1265.739205194</ele>
        <time>2015-05-17T08:23:02Z</time>
      </trkpt>
      <trkpt lat="44.09268" lon="3.54573">
        <ele>1265.739205194</ele>
        <time>2015-05-17T08:23:07Z</time>
      </trkpt>
      <trkpt lat="44.0927" lon="3.54565">
        <ele>1265.1640955582</ele>
        <time>2015-05-17T08:23:12Z</time>
      </trkpt>
      <trkpt lat="44.09271" lon="3.54558">
        <ele>1265.1640955582</ele>
        <time>2015-05-17T08:23:17Z</time>
      </trkpt>
      <trkpt lat="44.09271" lon="3.54551">
        <ele>1264.8160949247</ele>
        <time>2015-05-17T08:23:22Z</time>
      </trkpt>
      <trkpt lat="44.0927" lon="3.54545">
        <ele>1264.8160949247</ele>
        <time>2015-05-17T08:23:27Z</time>
      </trkpt>
      <trkpt lat="44.0927" lon="3.54539">
        <ele>1264.6999617071</ele>
        <time>2015-05-17T08:23:32Z</time>
      </trkpt>
      <trkpt lat="44.0927" lon="3.54531">
        <ele>1264.6999617071</ele>
        <time>2015-05-17T08:23:37Z</time>
      </trkpt>
      <trkpt lat="44.0927" lon="3.54525">
        <ele>1264.7693618333</ele>
        <time>2015-05-17T08:23:42Z</time>
      </trkpt>
      <trkpt lat="44.09273" lon="3.54521">
        <ele>1264.7693618333</ele>
        <time>2015-05-17T08:23:47Z</time>
      </trkpt>
      <trkpt lat="44.09274" lon="3.54516">
        <ele>1264.7693618333</ele>
        <time>2015-05-17T08:23:52Z</time>
      </trkpt>
      <trkpt lat="44.0928" lon="3.54516">
        <ele>1265.0537141231</ele>
        <time>2015-05-17T08:23:57Z</time>
      </trkpt>
      <trkpt lat="44.09285" lon="3.54515">
        <ele>1265.0537141231</ele>
        <time>2015-05-17T08:24:02Z</time>
      </trkpt>
      <trkpt lat="44.09289" lon="3.54512">
        <ele>1265.3720046759</ele>
        <time>2015-05-17T08:24:07Z</time>
      </trkpt>
      <trkpt lat="44.09294" lon="3.5451">
        <ele>1265.3720046759</ele>
        <time>2015-05-17T08:24:12Z</time>
      </trkpt>
      <trkpt lat="44.093" lon="3.54511">
        <ele>1265.6780182173</ele>
        <time>2015-05-17T08:24:17Z</time>
      </trkpt>
      <trkpt lat="44.09305" lon="3.54509">
        <ele>1265.6780182173</ele>
        <time>2015-05-17T08:24:22Z</time>
      </trkpt>
      <trkpt lat="44.09311" lon="3.54508">
        <ele>1265.8295985874</ele>
        <time>2015-05-17T08:24:27Z</time>
      </trkpt>
      <trkpt lat="44.09318" lon="3.54506">
        <ele>1265.8295985874</ele>
        <time>2015-05-17T08:24:32Z</time>
      </trkpt>
      <trkpt lat="44.09323" lon="3.54504">
        <ele>1265.8114745812</ele>
        <time>2015-05-17T08:24:37Z</time>
      </trkpt>
      <trkpt lat="44.09329" lon="3.54499">
        <ele>1265.8114745812</ele>
        <time>2015-05-17T08:24:42Z</time>
      </trkpt>
      <trkpt lat="44.09332" lon="3.54492">
        <ele>1265.81888147</ele>
        <time>2015-05-17T08:24:47Z</time>
      </trkpt>
      <trkpt lat="44.09336" lon="3.54489">
        <ele>1265.81888147</ele>
        <time>2015-05-17T08:24:52Z</time>
      </trkpt>
      <trkpt lat="44.0934" lon="3.54483">
        <ele>1265.9305151229</ele>
        <time>2015-05-17T08:24:57Z</time>
      </trkpt>
      <trkpt lat="44.09344" lon="3.54476">
        <ele>1265.9305151229</ele>
        <time>2015-05-17T08:25:02Z</time>
      </trkpt>
      <trkpt lat="44.09347" lon="3.5447">
        <ele>1266.0102640527</ele>
        <time>2015-05-17T08:25:07Z</time>
      </trkpt>
      <trkpt lat="44.0935" lon="3.54462">
        <ele>1266.0102640527</ele>
        <time>2015-05-17T08:25:12Z</time>
      </trkpt>
      <trkpt lat="44.09351" lon="3.54455">
        <ele>1266.1280720625</ele>
        <time>2015-05-17T08:25:17Z</time>
      </trkpt>
      <trkpt lat="44.09354" lon="3.54446">
        <ele>1266.1280720625</ele>
        <time>2015-05-17T08:25:22Z</time>
      </trkpt>
      <trkpt lat="44.09357" lon="3.54439">
        <ele>1266.280078625</ele>
        <time>2015-05-17T08:25:27Z</time>
      </trkpt>
      <trkpt lat="44.09359" lon="3.54429">
        <ele>1266.280078625</ele>
        <time>2015-05-17T08:25:34Z</time>
      </trkpt>
      <trkpt lat="44.0936" lon="3.54427">
        <ele>1266.5472631801</ele>
        <time>2015-05-17T08:25:39Z</time>
      </trkpt>
      <trkpt lat="44.09362" lon="3.54409">
        <ele>1266.839271424</ele>
        <time>2015-05-17T08:25:50Z</time>
      </trkpt>
      <trkpt lat="44.09363" lon="3.54406">
        <ele>1266.839271424</ele>
        <time>2015-05-17T08:25:52Z</time>
      </trkpt>
      <trkpt lat="44.09366" lon="3.54394">
        <ele>1267.0723355575</ele>
        <time>2015-05-17T08:26:00Z</time>
      </trkpt>
      <trkpt lat="44.09369" lon="3.54377">
        <ele>1267.4220246763</ele>
        <time>2015-05-17T08:26:40Z</time>
      </trkpt>
      <trkpt lat="44.09375" lon="3.54325">
        <ele>1268.3389233529</ele>
        <time>2015-05-17T08:26:52Z</time>
      </trkpt>
      <trkpt lat="44.09377" lon="3.54309">
        <ele>1269.3082238841</ele>
        <time>2015-05-17T08:27:12Z</time>
      </trkpt>
      <trkpt lat="44.09385" lon="3.5431">
        <ele>1269.3082238841</ele>
        <time>2015-05-17T08:27:52Z</time>
      </trkpt>
      <trkpt lat="44.09382" lon="3.54297">
        <ele>1270.5166206791</ele>
        <time>2015-05-17T08:29:40Z</time>
      </trkpt>
      <trkpt lat="44.09381" lon="3.54296">
        <ele>1270.5166206791</ele>
        <time>2015-05-17T08:29:52Z</time>
      </trkpt>
      <trkpt lat="44.09382" lon="3.54296">
        <ele>1270.5166206791</ele>
        <time>2015-05-17T08:29:57Z</time>
      </trkpt>
      <trkpt lat="44.09383" lon="3.54292">
        <ele>1270.5166206791</ele>
        <time>2015-05-17T08:30:02Z</time>
      </trkpt>
      <trkpt lat="44.09384" lon="3.5429">
        <ele>1270.5166206791</ele>
        <time>2015-05-17T08:30:07Z</time>
      </trkpt>
      <trkpt lat="44.09383" lon="3.54288">
        <ele>1271.402792772</ele>
        <time>2015-05-17T08:30:12Z</time>
      </trkpt>
      <trkpt lat="44.09383" lon="3.54288">
        <ele>1271.402792772</ele>
        <time>2015-05-17T08:30:17Z</time>
      </trkpt>
      <trkpt lat="44.09387" lon="3.54281">
        <ele>1271.402792772</ele>
        <time>2015-05-17T08:30:47Z</time>
      </trkpt>
      <trkpt lat="44.09388" lon="3.54278">
        <ele>1272.1924648163</ele>
        <time>2015-05-17T08:30:52Z</time>
      </trkpt>
      <trkpt lat="44.09389" lon="3.54273">
        <ele>1272.1924648163</ele>
        <time>2015-05-17T08:30:57Z</time>
      </trkpt>
      <trkpt lat="44.0939" lon="3.54269">
        <ele>1272.1924648163</ele>
        <time>2015-05-17T08:31:02Z</time>
      </trkpt>
      <trkpt lat="44.09389" lon="3.54269">
        <ele>1272.1924648163</ele>
        <time>2015-05-17T08:31:07Z</time>
      </trkpt>
      <trkpt lat="44.09393" lon="3.54265">
        <ele>1272.8071363127</ele>
        <time>2015-05-17T08:31:17Z</time>
      </trkpt>
      <trkpt lat="44.09395" lon="3.54262">
        <ele>1272.8071363127</ele>
        <time>2015-05-17T08:31:22Z</time>
      </trkpt>
      <trkpt lat="44.09396" lon="3.54259">
        <ele>1272.8071363127</ele>
        <time>2015-05-17T08:31:27Z</time>
      </trkpt>
      <trkpt lat="44.09399" lon="3.54256">
        <ele>1273.3503664904</ele>
        <time>2015-05-17T08:31:32Z</time>
      </trkpt>
      <trkpt lat="44.09402" lon="3.54252">
        <ele>1273.3503664904</ele>
        <time>2015-05-17T08:31:37Z</time>
      </trkpt>
      <trkpt lat="44.09405" lon="3.54249">
        <ele>1273.3503664904</ele>
        <time>2015-05-17T08:31:44Z</time>
      </trkpt>
      <trkpt lat="44.09411" lon="3.54242">
        <ele>1273.9352519562</ele>
        <time>2015-05-17T08:31:56Z</time>
      </trkpt>
      <trkpt lat="44.09413" lon="3.5424">
        <ele>1273.9352519562</ele>
        <time>2015-05-17T08:31:57Z</time>
      </trkpt>
      <trkpt lat="44.0942" lon="3.54236">
        <ele>1274.519069746</ele>
        <time>2015-05-17T08:32:14Z</time>
      </trkpt>
      <trkpt lat="44.09438" lon="3.5422">
        <ele>1275.2259550854</ele>
        <time>2015-05-17T08:32:49Z</time>
      </trkpt>
      <trkpt lat="44.09446" lon="3.54211">
        <ele>1276.126297715</ele>
        <time>2015-05-17T08:32:52Z</time>
      </trkpt>
      <trkpt lat="44.09451" lon="3.54205">
        <ele>1276.126297715</ele>
        <time>2015-05-17T08:33:06Z</time>
      </trkpt>
      <trkpt lat="44.09461" lon="3.5419">
        <ele>1277.3747213505</ele>
        <time>2015-05-17T08:33:23Z</time>
      </trkpt>
      <trkpt lat="44.09461" lon="3.54188">
        <ele>1277.3747213505</ele>
        <time>2015-05-17T08:33:35Z</time>
      </trkpt>
      <trkpt lat="44.0947" lon="3.54173">
        <ele>1278.8417674885</ele>
        <time>2015-05-17T08:33:51Z</time>
      </trkpt>
      <trkpt lat="44.09472" lon="3.54171">
        <ele>1278.8417674885</ele>
        <time>2015-05-17T08:33:52Z</time>
      </trkpt>
      <trkpt lat="44.09491" lon="3.54158">
        <ele>1281.3260143703</ele>
        <time>2015-05-17T08:34:36Z</time>
      </trkpt>
      <trkpt lat="44.09492" lon="3.54157">
        <ele>1281.3260143703</ele>
        <time>2015-05-17T08:34:38Z</time>
      </trkpt>
      <trkpt lat="44.09492" lon="3.54157">
        <ele>1281.3260143703</ele>
        <time>2015-05-17T08:34:47Z</time>
      </trkpt>
      <trkpt lat="44.09501" lon="3.54149">
        <ele>1283.9469129371</ele>
        <time>2015-05-17T08:34:52Z</time>
      </trkpt>
      <trkpt lat="44.0952" lon="3.54104">
        <ele>1287.247696736</ele>
        <time>2015-05-17T08:35:38Z</time>
      </trkpt>
      <trkpt lat="44.09526" lon="3.54093">
        <ele>1290.4743651688</ele>
        <time>2015-05-17T08:35:51Z</time>
      </trkpt>
      <trkpt lat="44.09526" lon="3.54092">
        <ele>1290.4743651688</ele>
        <time>2015-05-17T08:35:52Z</time>
      </trkpt>
      <trkpt lat="44.09531" lon="3.54089">
        <ele>1290.4743651688</ele>
        <time>2015-05-17T08:35:59Z</time>
      </trkpt>
      <trkpt lat="44.09532" lon="3.54086">
        <ele>1290.4743651688</ele>
        <time>2015-05-17T08:36:02Z</time>
      </trkpt>
      <trkpt lat="44.09534" lon="3.54079">
        <ele>1293.7768526044</ele>
        <time>2015-05-17T08:36:07Z</time>
      </trkpt>
      <trkpt lat="44.09537" lon="3.54074">
        <ele>1293.7768526044</ele>
        <time>2015-05-17T08:36:24Z</time>
      </trkpt>
      <trkpt lat="44.09542" lon="3.54071">
        <ele>1297.0372641038</ele>
        <time>2015-05-17T08:36:32Z</time>
      </trkpt>
      <trkpt lat="44.09548" lon="3.54047">
        <ele>1300.1327930747</ele>
        <time>2015-05-17T08:36:52Z</time>
      </trkpt>
      <trkpt lat="44.09564" lon="3.54012">
        <ele>1303.4766359462</ele>
        <time>2015-05-17T08:37:37Z</time>
      </trkpt>
      <trkpt lat="44.09572" lon="3.54001">
        <ele>1306.713758352</ele>
        <time>2015-05-17T08:38:00Z</time>
      </trkpt>
      <trkpt lat="44.09577" lon="3.53992">
        <ele>1306.713758352</ele>
        <time>2015-05-17T08:38:16Z</time>
      </trkpt>
      <trkpt lat="44.09578" lon="3.53985">
        <ele>1309.6687361309</ele>
        <time>2015-05-17T08:38:16Z</time>
      </trkpt>
      <trkpt lat="44.09587" lon="3.53981">
        <ele>1312.6586379861</ele>
        <time>2015-05-17T08:38:25Z</time>
      </trkpt>
      <trkpt lat="44.09605" lon="3.53972">
        <ele>1315.5876370676</ele>
        <time>2015-05-17T08:38:51Z</time>
      </trkpt>
      <trkpt lat="44.09626" lon="3.53978">
        <ele>1318.8869852085</ele>
        <time>2015-05-17T08:38:52Z</time>
      </trkpt>
      <trkpt lat="44.09633" lon="3.5398">
        <ele>1318.8869852085</ele>
        <time>2015-05-17T08:39:03Z</time>
      </trkpt>
      <trkpt lat="44.09696" lon="3.53985">
        <ele>1323.5125151364</ele>
        <time>2015-05-17T08:39:52Z</time>
      </trkpt>
      <trkpt lat="44.09755" lon="3.54012">
        <ele>1327.9771150256</ele>
        <time>2015-05-17T08:40:51Z</time>
      </trkpt>
      <trkpt lat="44.09761" lon="3.54007">
        <ele>1327.9771150256</ele>
        <time>2015-05-17T08:41:04Z</time>
      </trkpt>
      <trkpt lat="44.09768" lon="3.54003">
        <ele>1331.9924957676</ele>
        <time>2015-05-17T08:41:04Z</time>
      </trkpt>
      <trkpt lat="44.09822" lon="3.5399">
        <ele>1335.5010623266</ele>
        <time>2015-05-17T08:41:54Z</time>
      </trkpt>
      <trkpt lat="44.09828" lon="3.53995">
        <ele>1335.5010623266</ele>
        <time>2015-05-17T08:42:03Z</time>
      </trkpt>
      <trkpt lat="44.09854" lon="3.54009">
        <ele>1338.0997321811</ele>
        <time>2015-05-17T08:42:28Z</time>
      </trkpt>
      <trkpt lat="44.09869" lon="3.54018">
        <ele>1340.1953700953</ele>
        <time>2015-05-17T08:42:51Z</time>
      </trkpt>
      <trkpt lat="44.09883" lon="3.54019">
        <ele>1341.7834991031</ele>
        <time>2015-05-17T08:42:52Z</time>
      </trkpt>
      <trkpt lat="44.09898" lon="3.54026">
        <ele>1342.9194349551</ele>
        <time>2015-05-17T08:43:18Z</time>
      </trkpt>
      <trkpt lat="44.09953" lon="3.54051">
        <ele>1343.8150667975</ele>
        <time>2015-05-17T08:43:56Z</time>
      </trkpt>
      <trkpt lat="44.09959" lon="3.54054">
        <ele>1343.8150667975</ele>
        <time>2015-05-17T08:43:57Z</time>
      </trkpt>
      <trkpt lat="44.0998" lon="3.54063">
        <ele>1344.3320105736</ele>
        <time>2015-05-17T08:44:23Z</time>
      </trkpt>
      <trkpt lat="44.1002" lon="3.5407">
        <ele>1344.4742487291</ele>
        <time>2015-05-17T08:44:53Z</time>
      </trkpt>
      <trkpt lat="44.10027" lon="3.54065">
        <ele>1344.4742487291</ele>
        <time>2015-05-17T08:44:59Z</time>
      </trkpt>
      <trkpt lat="44.1003" lon="3.54063">
        <ele>1344.4491758447</ele>
        <time>2015-05-17T08:45:02Z</time>
      </trkpt>
      <trkpt lat="44.10032" lon="3.54055">
        <ele>1344.4491758447</ele>
        <time>2015-05-17T08:45:10Z</time>
      </trkpt>
      <trkpt lat="44.10036" lon="3.54052">
        <ele>1344.34719984</ele>
        <time>2015-05-17T08:45:21Z</time>
      </trkpt>
      <trkpt lat="44.10043" lon="3.54043">
        <ele>1344.1218559951</ele>
        <time>2015-05-17T08:45:39Z</time>
      </trkpt>
      <trkpt lat="44.10069" lon="3.54007">
        <ele>1343.9618168327</ele>
        <time>2015-05-17T08:45:56Z</time>
      </trkpt>
      <trkpt lat="44.10069" lon="3.54004">
        <ele>1343.9618168327</ele>
        <time>2015-05-17T08:45:57Z</time>
      </trkpt>
      <trkpt lat="44.10072" lon="3.53991">
        <ele>1343.7813234501</ele>
        <time>2015-05-17T08:46:13Z</time>
      </trkpt>
      <trkpt lat="44.10075" lon="3.53976">
        <ele>1343.4723303318</ele>
        <time>2015-05-17T08:46:13Z</time>
      </trkpt>
      <trkpt lat="44.10075" lon="3.53974">
        <ele>1343.4723303318</ele>
        <time>2015-05-17T08:46:14Z</time>
      </trkpt>
      <trkpt lat="44.10084" lon="3.53912">
        <ele>1343.2671485314</ele>
        <time>2015-05-17T08:46:51Z</time>
      </trkpt>
      <trkpt lat="44.10084" lon="3.53911">
        <ele>1343.2671485314</ele>
        <time>2015-05-17T08:46:52Z</time>
      </trkpt>
      <trkpt lat="44.10088" lon="3.53902">
        <ele>1343.2671485314</ele>
        <time>2015-05-17T08:47:05Z</time>
      </trkpt>
      <trkpt lat="44.10093" lon="3.5389">
        <ele>1343.0197764389</ele>
        <time>2015-05-17T08:47:13Z</time>
      </trkpt>
      <trkpt lat="44.10104" lon="3.53869">
        <ele>1342.6384594704</ele>
        <time>2015-05-17T08:47:30Z</time>
      </trkpt>
      <trkpt lat="44.10114" lon="3.53834">
        <ele>1342.0241382798</ele>
        <time>2015-05-17T08:47:53Z</time>
      </trkpt>
      <trkpt lat="44.10117" lon="3.53831">
        <ele>1342.0241382798</ele>
        <time>2015-05-17T08:47:57Z</time>
      </trkpt>
      <trkpt lat="44.10143" lon="3.53811">
        <ele>1340.5665542325</ele>
        <time>2015-05-17T08:48:37Z</time>
      </trkpt>
      <trkpt lat="44.10152" lon="3.53813">
        <ele>1339.1012031981</ele>
        <time>2015-05-17T08:48:52Z</time>
      </trkpt>
      <trkpt lat="44.10155" lon="3.53816">
        <ele>1339.1012031981</ele>
        <time>2015-05-17T08:49:01Z</time>
      </trkpt>
      <trkpt lat="44.10158" lon="3.53817">
        <ele>1339.1012031981</ele>
        <time>2015-05-17T08:49:07Z</time>
      </trkpt>
      <trkpt lat="44.10161" lon="3.53819">
        <ele>1337.3638358391</ele>
        <time>2015-05-17T08:49:12Z</time>
      </trkpt>
      <trkpt lat="44.10195" lon="3.53857">
        <ele>1334.9084205303</ele>
        <time>2015-05-17T08:49:52Z</time>
      </trkpt>
      <trkpt lat="44.10202" lon="3.53862">
        <ele>1334.9084205303</ele>
        <time>2015-05-17T08:50:08Z</time>
      </trkpt>
      <trkpt lat="44.10207" lon="3.53869">
        <ele>1332.4481242602</ele>
        <time>2015-05-17T08:50:52Z</time>
      </trkpt>
      <trkpt lat="44.1024" lon="3.53928">
        <ele>1329.706391605</ele>
        <time>2015-05-17T08:51:00Z</time>
      </trkpt>
      <trkpt lat="44.10265" lon="3.53969">
        <ele>1326.7880319801</ele>
        <time>2015-05-17T08:51:35Z</time>
      </trkpt>
      <trkpt lat="44.10276" lon="3.53997">
        <ele>1324.0500099959</ele>
        <time>2015-05-17T08:51:52Z</time>
      </trkpt>
      <trkpt lat="44.10305" lon="3.54085">
        <ele>1320.1783678632</ele>
        <time>2015-05-17T08:52:53Z</time>
      </trkpt>
      <trkpt lat="44.10314" lon="3.54103">
        <ele>1315.9053617379</ele>
        <time>2015-05-17T08:53:19Z</time>
      </trkpt>
      <trkpt lat="44.10314" lon="3.54101">
        <ele>1315.9053617379</ele>
        <time>2015-05-17T08:53:29Z</time>
      </trkpt>
      <trkpt lat="44.10315" lon="3.54128">
        <ele>1311.9536694914</ele>
        <time>2015-05-17T08:53:52Z</time>
      </trkpt>
      <trkpt lat="44.10317" lon="3.54134">
        <ele>1311.9536694914</ele>
        <time>2015-05-17T08:54:00Z</time>
      </trkpt>
      <trkpt lat="44.10319" lon="3.54137">
        <ele>1311.9536694914</ele>
        <time>2015-05-17T08:54:09Z</time>
      </trkpt>
      <trkpt lat="44.10316" lon="3.54124">
        <ele>1308.2128826781</ele>
        <time>2015-05-17T08:54:50Z</time>
      </trkpt>
      <trkpt lat="44.10314" lon="3.541">
        <ele>1305.1134319417</ele>
        <time>2015-05-17T08:55:52Z</time>
      </trkpt>
      <trkpt lat="44.10327" lon="3.54104">
        <ele>1302.2874955043</ele>
        <time>2015-05-17T08:56:02Z</time>
      </trkpt>
      <trkpt lat="44.10331" lon="3.54104">
        <ele>1302.2874955043</ele>
        <time>2015-05-17T08:56:06Z</time>
      </trkpt>
      <trkpt lat="44.10337" lon="3.54101">
        <ele>1299.6816043277</ele>
        <time>2015-05-17T08:56:16Z</time>
      </trkpt>
      <trkpt lat="44.10345" lon="3.54094">
        <ele>1299.6816043277</ele>
        <time>2015-05-17T08:56:24Z</time>
      </trkpt>
      <trkpt lat="44.10362" lon="3.54081">
        <ele>1297.1875264551</ele>
        <time>2015-05-17T08:56:41Z</time>
      </trkpt>
      <trkpt lat="44.10363" lon="3.5408">
        <ele>1297.1875264551</ele>
        <time>2015-05-17T08:56:41Z</time>
      </trkpt>
      <trkpt lat="44.10368" lon="3.54073">
        <ele>1294.8918179546</ele>
        <time>2015-05-17T08:56:53Z</time>
      </trkpt>
      <trkpt lat="44.1037" lon="3.5407">
        <ele>1294.8918179546</ele>
        <time>2015-05-17T08:57:00Z</time>
      </trkpt>
      <trkpt lat="44.10385" lon="3.54054">
        <ele>1292.7727755333</ele>
        <time>2015-05-17T08:57:17Z</time>
      </trkpt>
      <trkpt lat="44.10399" lon="3.54041">
        <ele>1290.8671313319</ele>
        <time>2015-05-17T08:57:37Z</time>
      </trkpt>
      <trkpt lat="44.104" lon="3.5404">
        <ele>1290.8671313319</ele>
        <time>2015-05-17T08:57:37Z</time>
      </trkpt>
      <trkpt lat="44.1044" lon="3.53996">
        <ele>1288.5156372687</ele>
        <time>2015-05-17T08:59:48Z</time>
      </trkpt>
      <trkpt lat="44.10444" lon="3.53979">
        <ele>1286.2911827485</ele>
        <time>2015-05-17T08:59:57Z</time>
      </trkpt>
      <trkpt lat="44.10448" lon="3.53969">
        <ele>1286.2911827485</ele>
        <time>2015-05-17T09:00:09Z</time>
      </trkpt>
      <trkpt lat="44.10451" lon="3.53966">
        <ele>1284.132467612</ele>
        <time>2015-05-17T09:00:23Z</time>
      </trkpt>
      <trkpt lat="44.10455" lon="3.53951">
        <ele>1282.0543087591</ele>
        <time>2015-05-17T09:00:35Z</time>
      </trkpt>
      <trkpt lat="44.10461" lon="3.53936">
        <ele>1279.9833670855</ele>
        <time>2015-05-17T09:00:57Z</time>
      </trkpt>
      <trkpt lat="44.10462" lon="3.53933">
        <ele>1279.9833670855</ele>
        <time>2015-05-17T09:01:23Z</time>
      </trkpt>
      <trkpt lat="44.10488" lon="3.53898">
        <ele>1277.1880500404</ele>
        <time>2015-05-17T09:01:53Z</time>
      </trkpt>
      <trkpt lat="44.10493" lon="3.53894">
        <ele>1277.1880500404</ele>
        <time>2015-05-17T09:02:05Z</time>
      </trkpt>
      <trkpt lat="44.10493" lon="3.53893">
        <ele>1277.1880500404</ele>
        <time>2015-05-17T09:02:05Z</time>
      </trkpt>
      <trkpt lat="44.10496" lon="3.53888">
        <ele>1274.4920413293</ele>
        <time>2015-05-17T09:02:09Z</time>
      </trkpt>
      <trkpt lat="44.10495" lon="3.53886">
        <ele>1274.4920413293</ele>
        <time>2015-05-17T09:02:16Z</time>
      </trkpt>
      <trkpt lat="44.10494" lon="3.53878">
        <ele>1274.4920413293</ele>
        <time>2015-05-17T09:02:49Z</time>
      </trkpt>
      <trkpt lat="44.10469" lon="3.53857">
        <ele>1271.5619401995</ele>
        <time>2015-05-17T09:02:53Z</time>
      </trkpt>
      <trkpt lat="44.10468" lon="3.53855">
        <ele>1271.5619401995</ele>
        <time>2015-05-17T09:02:59Z</time>
      </trkpt>
      <trkpt lat="44.10436" lon="3.5384">
        <ele>1268.9111122844</ele>
        <time>2015-05-17T09:03:32Z</time>
      </trkpt>
      <trkpt lat="44.1043" lon="3.53829">
        <ele>1265.2695421645</ele>
        <time>2015-05-17T09:04:13Z</time>
      </trkpt>
      <trkpt lat="44.10461" lon="3.53796">
        <ele>1261.2941780129</ele>
        <time>2015-05-17T09:04:53Z</time>
      </trkpt>
      <trkpt lat="44.10464" lon="3.53794">
        <ele>1261.2941780129</ele>
        <time>2015-05-17T09:04:58Z</time>
      </trkpt>
      <trkpt lat="44.10452" lon="3.53781">
        <ele>1257.6807332065</ele>
        <time>2015-05-17T09:05:52Z</time>
      </trkpt>
      <trkpt lat="44.10453" lon="3.53779">
        <ele>1257.6807332065</ele>
        <time>2015-05-17T09:05:57Z</time>
      </trkpt>
      <trkpt lat="44.10454" lon="3.53776">
        <ele>1257.6807332065</ele>
        <time>2015-05-17T09:06:19Z</time>
      </trkpt>
      <trkpt lat="44.10405" lon="3.53738">
        <ele>1250.4883076814</ele>
        <time>2015-05-17T09:07:59Z</time>
      </trkpt>
      <trkpt lat="44.10403" lon="3.53688">
        <ele>1243.9895939677</ele>
        <time>2015-05-17T09:08:52Z</time>
      </trkpt>
      <trkpt lat="44.10402" lon="3.53668">
        <ele>1238.2486460418</ele>
        <time>2015-05-17T09:08:57Z</time>
      </trkpt>
      <trkpt lat="44.10402" lon="3.53662">
        <ele>1238.2486460418</ele>
        <time>2015-05-17T09:09:17Z</time>
      </trkpt>
      <trkpt lat="44.10388" lon="3.53628">
        <ele>1233.1494076638</ele>
        <time>2015-05-17T09:09:27Z</time>
      </trkpt>
      <trkpt lat="44.10384" lon="3.53552">
        <ele>1228.2795648709</ele>
        <time>2015-05-17T09:10:29Z</time>
      </trkpt>
      <trkpt lat="44.10387" lon="3.53492">
        <ele>1224.2794857447</ele>
        <time>2015-05-17T09:10:59Z</time>
      </trkpt>
      <trkpt lat="44.10384" lon="3.53408">
        <ele>1222.46030361</ele>
        <time>2015-05-17T09:11:57Z</time>
      </trkpt>
      <trkpt lat="44.10386" lon="3.53392">
        <ele>1220.9604909938</ele>
        <time>2015-05-17T09:12:16Z</time>
      </trkpt>
      <trkpt lat="44.1039" lon="3.53326">
        <ele>1219.8557279439</ele>
        <time>2015-05-17T09:13:06Z</time>
      </trkpt>
      <trkpt lat="44.10394" lon="3.53271">
        <ele>1219.0706321455</ele>
        <time>2015-05-17T09:13:32Z</time>
      </trkpt>
      <trkpt lat="44.10395" lon="3.53232">
        <ele>1218.8656925306</ele>
        <time>2015-05-17T09:13:59Z</time>
      </trkpt>
      <trkpt lat="44.10378" lon="3.53182">
        <ele>1218.7021916324</ele>
        <time>2015-05-17T09:14:34Z</time>
      </trkpt>
      <trkpt lat="44.10378" lon="3.53176">
        <ele>1218.7021916324</ele>
        <time>2015-05-17T09:14:37Z</time>
      </trkpt>
      <trkpt lat="44.10377" lon="3.5317">
        <ele>1218.7021916324</ele>
        <time>2015-05-17T09:14:43Z</time>
      </trkpt>
      <trkpt lat="44.10377" lon="3.53169">
        <ele>1218.4986387374</ele>
        <time>2015-05-17T09:14:48Z</time>
      </trkpt>
      <trkpt lat="44.10376" lon="3.53158">
        <ele>1218.4986387374</ele>
        <time>2015-05-17T09:14:53Z</time>
      </trkpt>
      <trkpt lat="44.10375" lon="3.53152">
        <ele>1218.5541888903</ele>
        <time>2015-05-17T09:14:57Z</time>
      </trkpt>
      <trkpt lat="44.10374" lon="3.53149">
        <ele>1218.5541888903</ele>
        <time>2015-05-17T09:15:05Z</time>
      </trkpt>
      <trkpt lat="44.10373" lon="3.53146">
        <ele>1218.5541888903</ele>
        <time>2015-05-17T09:15:07Z</time>
      </trkpt>
      <trkpt lat="44.10372" lon="3.5314">
        <ele>1218.5541888903</ele>
        <time>2015-05-17T09:15:12Z</time>
      </trkpt>
      <trkpt lat="44.10372" lon="3.53134">
        <ele>1218.8281233326</ele>
        <time>2015-05-17T09:15:17Z</time>
      </trkpt>
      <trkpt lat="44.1037" lon="3.53132">
        <ele>1218.8281233326</ele>
        <time>2015-05-17T09:15:22Z</time>
      </trkpt>
      <trkpt lat="44.10364" lon="3.53129">
        <ele>1219.2387830998</ele>
        <time>2015-05-17T09:15:29Z</time>
      </trkpt>
      <trkpt lat="44.10362" lon="3.53128">
        <ele>1219.2387830998</ele>
        <time>2015-05-17T09:15:32Z</time>
      </trkpt>
      <trkpt lat="44.10359" lon="3.53127">
        <ele>1219.2387830998</ele>
        <time>2015-05-17T09:15:37Z</time>
      </trkpt>
      <trkpt lat="44.10355" lon="3.53128">
        <ele>1219.7965367559</ele>
        <time>2015-05-17T09:15:43Z</time>
      </trkpt>
      <trkpt lat="44.10352" lon="3.53127">
        <ele>1219.7965367559</ele>
        <time>2015-05-17T09:15:48Z</time>
      </trkpt>
      <trkpt lat="44.10349" lon="3.53126">
        <ele>1219.7965367559</ele>
        <time>2015-05-17T09:15:53Z</time>
      </trkpt>
      <trkpt lat="44.10347" lon="3.53124">
        <ele>1219.7965367559</ele>
        <time>2015-05-17T09:15:58Z</time>
      </trkpt>
      <trkpt lat="44.10345" lon="3.5312">
        <ele>1220.4817297629</ele>
        <time>2015-05-17T09:16:02Z</time>
      </trkpt>
      <trkpt lat="44.10344" lon="3.53116">
        <ele>1220.4817297629</ele>
        <time>2015-05-17T09:16:07Z</time>
      </trkpt>
      <trkpt lat="44.10343" lon="3.53115">
        <ele>1220.4817297629</ele>
        <time>2015-05-17T09:16:12Z</time>
      </trkpt>
      <trkpt lat="44.1034" lon="3.53111">
        <ele>1220.4817297629</ele>
        <time>2015-05-17T09:16:22Z</time>
      </trkpt>
      <trkpt lat="44.10338" lon="3.53101">
        <ele>1221.2325624898</ele>
        <time>2015-05-17T09:16:27Z</time>
      </trkpt>
      <trkpt lat="44.10337" lon="3.53096">
        <ele>1221.2325624898</ele>
        <time>2015-05-17T09:16:34Z</time>
      </trkpt>
      <trkpt lat="44.10335" lon="3.53087">
        <ele>1222.1501447126</ele>
        <time>2015-05-17T09:16:41Z</time>
      </trkpt>
      <trkpt lat="44.10335" lon="3.53082">
        <ele>1222.1501447126</ele>
        <time>2015-05-17T09:16:42Z</time>
      </trkpt>
      <trkpt lat="44.10333" lon="3.53075">
        <ele>1223.1548120449</ele>
        <time>2015-05-17T09:16:48Z</time>
      </trkpt>
      <trkpt lat="44.10332" lon="3.53072">
        <ele>1223.1548120449</ele>
        <time>2015-05-17T09:16:56Z</time>
      </trkpt>
      <trkpt lat="44.1033" lon="3.53066">
        <ele>1223.1548120449</ele>
        <time>2015-05-17T09:16:58Z</time>
      </trkpt>
      <trkpt lat="44.10329" lon="3.53062">
        <ele>1224.2446456111</ele>
        <time>2015-05-17T09:17:02Z</time>
      </trkpt>
      <trkpt lat="44.10327" lon="3.53057">
        <ele>1224.2446456111</ele>
        <time>2015-05-17T09:17:07Z</time>
      </trkpt>
      <trkpt lat="44.10328" lon="3.53052">
        <ele>1224.2446456111</ele>
        <time>2015-05-17T09:17:12Z</time>
      </trkpt>
      <trkpt lat="44.10328" lon="3.53049">
        <ele>1225.4321451999</ele>
        <time>2015-05-17T09:17:17Z</time>
      </trkpt>
      <trkpt lat="44.10329" lon="3.53047">
        <ele>1225.4321451999</ele>
        <time>2015-05-17T09:17:22Z</time>
      </trkpt>
      <trkpt lat="44.10332" lon="3.53046">
        <ele>1225.4321451999</ele>
        <time>2015-05-17T09:17:27Z</time>
      </trkpt>
      <trkpt lat="44.10332" lon="3.53046">
        <ele>1225.4321451999</ele>
        <time>2015-05-17T09:17:32Z</time>
      </trkpt>
      <trkpt lat="44.10336" lon="3.53047">
        <ele>1225.4321451999</ele>
        <time>2015-05-17T09:17:37Z</time>
      </trkpt>
      <trkpt lat="44.10341" lon="3.53048">
        <ele>1226.5990437903</ele>
        <time>2015-05-17T09:17:42Z</time>
      </trkpt>
      <trkpt lat="44.10345" lon="3.53046">
        <ele>1226.5990437903</ele>
        <time>2015-05-17T09:17:47Z</time>
      </trkpt>
      <trkpt lat="44.10348" lon="3.53044">
        <ele>1226.5990437903</ele>
        <time>2015-05-17T09:17:52Z</time>
      </trkpt>
      <trkpt lat="44.10352" lon="3.53043">
        <ele>1227.7656704885</ele>
        <time>2015-05-17T09:17:57Z</time>
      </trkpt>
      <trkpt lat="44.10355" lon="3.53044">
        <ele>1227.7656704885</ele>
        <time>2015-05-17T09:18:02Z</time>
      </trkpt>
      <trkpt lat="44.10357" lon="3.53043">
        <ele>1227.7656704885</ele>
        <time>2015-05-17T09:18:07Z</time>
      </trkpt>
      <trkpt lat="44.1036" lon="3.53041">
        <ele>1227.7656704885</ele>
        <time>2015-05-17T09:18:12Z</time>
      </trkpt>
      <trkpt lat="44.10363" lon="3.5304">
        <ele>1228.8213264387</ele>
        <time>2015-05-17T09:18:17Z</time>
      </trkpt>
      <trkpt lat="44.10366" lon="3.53036">
        <ele>1228.8213264387</ele>
        <time>2015-05-17T09:18:22Z</time>
      </trkpt>
      <trkpt lat="44.10368" lon="3.53033">
        <ele>1228.8213264387</ele>
        <time>2015-05-17T09:18:27Z</time>
      </trkpt>
      <trkpt lat="44.10371" lon="3.53031">
        <ele>1229.7071738028</ele>
        <time>2015-05-17T09:18:32Z</time>
      </trkpt>
      <trkpt lat="44.10373" lon="3.5303">
        <ele>1229.7071738028</ele>
        <time>2015-05-17T09:18:37Z</time>
      </trkpt>
      <trkpt lat="44.10378" lon="3.53031">
        <ele>1229.7071738028</ele>
        <time>2015-05-17T09:18:42Z</time>
      </trkpt>
      <trkpt lat="44.10381" lon="3.53029">
        <ele>1230.4270168916</ele>
        <time>2015-05-17T09:18:47Z</time>
      </trkpt>
      <trkpt lat="44.10387" lon="3.53026">
        <ele>1230.4270168916</ele>
        <time>2015-05-17T09:18:52Z</time>
      </trkpt>
      <trkpt lat="44.10389" lon="3.53023">
        <ele>1230.4270168916</ele>
        <time>2015-05-17T09:18:57Z</time>
      </trkpt>
      <trkpt lat="44.10392" lon="3.53023">
        <ele>1230.8841748974</ele>
        <time>2015-05-17T09:19:02Z</time>
      </trkpt>
      <trkpt lat="44.10396" lon="3.53022">
        <ele>1230.8841748974</ele>
        <time>2015-05-17T09:19:07Z</time>
      </trkpt>
      <trkpt lat="44.10399" lon="3.5302">
        <ele>1230.8841748974</ele>
        <time>2015-05-17T09:19:14Z</time>
      </trkpt>
      <trkpt lat="44.10405" lon="3.53019">
        <ele>1231.0188456584</ele>
        <time>2015-05-17T09:19:23Z</time>
      </trkpt>
      <trkpt lat="44.10416" lon="3.53002">
        <ele>1230.2867545606</ele>
        <time>2015-05-17T09:19:37Z</time>
      </trkpt>
      <trkpt lat="44.1042" lon="3.52999">
        <ele>1230.2867545606</ele>
        <time>2015-05-17T09:19:50Z</time>
      </trkpt>
      <trkpt lat="44.10434" lon="3.52979">
        <ele>1228.8924233696</ele>
        <time>2015-05-17T09:20:00Z</time>
      </trkpt>
      <trkpt lat="44.10437" lon="3.52976">
        <ele>1228.8924233696</ele>
        <time>2015-05-17T09:20:12Z</time>
      </trkpt>
      <trkpt lat="44.10458" lon="3.52897">
        <ele>1225.8889113855</ele>
        <time>2015-05-17T09:20:57Z</time>
      </trkpt>
      <trkpt lat="44.10463" lon="3.52894">
        <ele>1225.8889113855</ele>
        <time>2015-05-17T09:21:11Z</time>
      </trkpt>
      <trkpt lat="44.10463" lon="3.52894">
        <ele>1225.8889113855</ele>
        <time>2015-05-17T09:21:29Z</time>
      </trkpt>
      <trkpt lat="44.10461" lon="3.52893">
        <ele>1225.8889113855</ele>
        <time>2015-05-17T09:21:29Z</time>
      </trkpt>
      <trkpt lat="44.10468" lon="3.52861">
        <ele>1222.9976197032</ele>
        <time>2015-05-17T09:21:55Z</time>
      </trkpt>
      <trkpt lat="44.10468" lon="3.52859">
        <ele>1222.9976197032</ele>
        <time>2015-05-17T09:21:58Z</time>
      </trkpt>
      <trkpt lat="44.10467" lon="3.52829">
        <ele>1220.6027909927</ele>
        <time>2015-05-17T09:22:39Z</time>
      </trkpt>
      <trkpt lat="44.10466" lon="3.52821">
        <ele>1220.6027909927</ele>
        <time>2015-05-17T09:22:53Z</time>
      </trkpt>
      <trkpt lat="44.10467" lon="3.52803">
        <ele>1218.3242207876</ele>
        <time>2015-05-17T09:23:00Z</time>
      </trkpt>
      <trkpt lat="44.10469" lon="3.52797">
        <ele>1218.3242207876</ele>
        <time>2015-05-17T09:23:10Z</time>
      </trkpt>
      <trkpt lat="44.10463" lon="3.5277">
        <ele>1216.2562025016</ele>
        <time>2015-05-17T09:23:27Z</time>
      </trkpt>
      <trkpt lat="44.10475" lon="3.52774">
        <ele>1214.1253473329</ele>
        <time>2015-05-17T09:23:52Z</time>
      </trkpt>
      <trkpt lat="44.10477" lon="3.52771">
        <ele>1214.1253473329</ele>
        <time>2015-05-17T09:23:58Z</time>
      </trkpt>
      <trkpt lat="44.10514" lon="3.52754">
        <ele>1209.7330906658</ele>
        <time>2015-05-17T09:25:00Z</time>
      </trkpt>
      <trkpt lat="44.1052" lon="3.52743">
        <ele>1204.9254738423</ele>
        <time>2015-05-17T09:26:00Z</time>
      </trkpt>
      <trkpt lat="44.10543" lon="3.52736">
        <ele>1199.6559534379</ele>
        <time>2015-05-17T09:26:57Z</time>
      </trkpt>
      <trkpt lat="44.10542" lon="3.52738">
        <ele>1199.6559534379</ele>
        <time>2015-05-17T09:27:05Z</time>
      </trkpt>
      <trkpt lat="44.10536" lon="3.52755">
        <ele>1194.3006562945</ele>
        <time>2015-05-17T09:27:55Z</time>
      </trkpt>
      <trkpt lat="44.10536" lon="3.52759">
        <ele>1194.3006562945</ele>
        <time>2015-05-17T09:28:00Z</time>
      </trkpt>
      <trkpt lat="44.10536" lon="3.5276">
        <ele>1194.3006562945</ele>
        <time>2015-05-17T09:28:24Z</time>
      </trkpt>
      <trkpt lat="44.10548" lon="3.52773">
        <ele>1189.2947796899</ele>
        <time>2015-05-17T09:29:00Z</time>
      </trkpt>
      <trkpt lat="44.10549" lon="3.52773">
        <ele>1189.2947796899</ele>
        <time>2015-05-17T09:29:15Z</time>
      </trkpt>
      <trkpt lat="44.10553" lon="3.52761">
        <ele>1184.550548512</ele>
        <time>2015-05-17T09:29:57Z</time>
      </trkpt>
      <trkpt lat="44.10549" lon="3.52753">
        <ele>1184.550548512</ele>
        <time>2015-05-17T09:30:02Z</time>
      </trkpt>
      <trkpt lat="44.10549" lon="3.52746">
        <ele>1180.2596536028</ele>
        <time>2015-05-17T09:30:08Z</time>
      </trkpt>
      <trkpt lat="44.10549" lon="3.52738">
        <ele>1180.2596536028</ele>
        <time>2015-05-17T09:30:20Z</time>
      </trkpt>
      <trkpt lat="44.10549" lon="3.52726">
        <ele>1176.266887434</ele>
        <time>2015-05-17T09:30:29Z</time>
      </trkpt>
      <trkpt lat="44.1055" lon="3.52726">
        <ele>1176.266887434</ele>
        <time>2015-05-17T09:30:45Z</time>
      </trkpt>
      <trkpt lat="44.1056" lon="3.52717">
        <ele>1172.5716182746</ele>
        <time>2015-05-17T09:30:57Z</time>
      </trkpt>
      <trkpt lat="44.10573" lon="3.52681">
        <ele>1169.2011330886</ele>
        <time>2015-05-17T09:31:56Z</time>
      </trkpt>
      <trkpt lat="44.10573" lon="3.52679">
        <ele>1169.2011330886</ele>
        <time>2015-05-17T09:31:57Z</time>
      </trkpt>
      <trkpt lat="44.10572" lon="3.52672">
        <ele>1169.2011330886</ele>
        <time>2015-05-17T09:32:04Z</time>
      </trkpt>
      <trkpt lat="44.10573" lon="3.52665">
        <ele>1166.2085011702</ele>
        <time>2015-05-17T09:32:12Z</time>
      </trkpt>
      <trkpt lat="44.10578" lon="3.52663">
        <ele>1166.2085011702</ele>
        <time>2015-05-17T09:32:38Z</time>
      </trkpt>
      <trkpt lat="44.10597" lon="3.52653">
        <ele>1163.4975917571</ele>
        <time>2015-05-17T09:32:57Z</time>
      </trkpt>
      <trkpt lat="44.10607" lon="3.52596">
        <ele>1160.935180994</ele>
        <time>2015-05-17T09:33:56Z</time>
      </trkpt>
      <trkpt lat="44.10607" lon="3.52596">
        <ele>1160.935180994</ele>
        <time>2015-05-17T09:33:57Z</time>
      </trkpt>
      <trkpt lat="44.10623" lon="3.52525">
        <ele>1158.4837519888</ele>
        <time>2015-05-17T09:34:55Z</time>
      </trkpt>
      <trkpt lat="44.10624" lon="3.52519">
        <ele>1158.4837519888</ele>
        <time>2015-05-17T09:34:57Z</time>
      </trkpt>
      <trkpt lat="44.10624" lon="3.52507">
        <ele>1156.4539734433</ele>
        <time>2015-05-17T09:35:18Z</time>
      </trkpt>
      <trkpt lat="44.1065" lon="3.5244">
        <ele>1154.6568192093</ele>
        <time>2015-05-17T09:35:58Z</time>
      </trkpt>
      <trkpt lat="44.10662" lon="3.5242">
        <ele>1153.1037275018</ele>
        <time>2015-05-17T09:36:24Z</time>
      </trkpt>
      <trkpt lat="44.10667" lon="3.52417">
        <ele>1153.1037275018</ele>
        <time>2015-05-17T09:36:57Z</time>
      </trkpt>
      <trkpt lat="44.10676" lon="3.52322">
        <ele>1151.1848267498</ele>
        <time>2015-05-17T09:38:00Z</time>
      </trkpt>
      <trkpt lat="44.10677" lon="3.52319">
        <ele>1151.1848267498</ele>
        <time>2015-05-17T09:38:07Z</time>
      </trkpt>
      <trkpt lat="44.10695" lon="3.52232">
        <ele>1149.5176900388</ele>
        <time>2015-05-17T09:38:57Z</time>
      </trkpt>
      <trkpt lat="44.10694" lon="3.52226">
        <ele>1149.5176900388</ele>
        <time>2015-05-17T09:39:09Z</time>
      </trkpt>
      <trkpt lat="44.10697" lon="3.52191">
        <ele>1148.0108182028</ele>
        <time>2015-05-17T09:39:26Z</time>
      </trkpt>
      <trkpt lat="44.10701" lon="3.52171">
        <ele>1146.7518410956</ele>
        <time>2015-05-17T09:39:42Z</time>
      </trkpt>
      <trkpt lat="44.10703" lon="3.52142">
        <ele>1145.7347232014</ele>
        <time>2015-05-17T09:39:55Z</time>
      </trkpt>
      <trkpt lat="44.10704" lon="3.52139">
        <ele>1145.7347232014</ele>
        <time>2015-05-17T09:39:57Z</time>
      </trkpt>
      <trkpt lat="44.10703" lon="3.5212">
        <ele>1144.8522618563</ele>
        <time>2015-05-17T09:40:21Z</time>
      </trkpt>
      <trkpt lat="44.10713" lon="3.52108">
        <ele>1144.0191211383</ele>
        <time>2015-05-17T09:40:55Z</time>
      </trkpt>
      <trkpt lat="44.10713" lon="3.52103">
        <ele>1144.0191211383</ele>
        <time>2015-05-17T09:40:57Z</time>
      </trkpt>
      <trkpt lat="44.10712" lon="3.52097">
        <ele>1144.0191211383</ele>
        <time>2015-05-17T09:41:08Z</time>
      </trkpt>
      <trkpt lat="44.10711" lon="3.52083">
        <ele>1143.1272442422</ele>
        <time>2015-05-17T09:41:26Z</time>
      </trkpt>
      <trkpt lat="44.10709" lon="3.52061">
        <ele>1142.3216495391</ele>
        <time>2015-05-17T09:41:56Z</time>
      </trkpt>
      <trkpt lat="44.10708" lon="3.5206">
        <ele>1142.3216495391</ele>
        <time>2015-05-17T09:41:57Z</time>
      </trkpt>
      <trkpt lat="44.10711" lon="3.51981">
        <ele>1141.4770556553</ele>
        <time>2015-05-17T09:42:47Z</time>
      </trkpt>
      <trkpt lat="44.10715" lon="3.51962">
        <ele>1140.7657228876</ele>
        <time>2015-05-17T09:43:00Z</time>
      </trkpt>
      <trkpt lat="44.10715" lon="3.5196">
        <ele>1140.7657228876</ele>
        <time>2015-05-17T09:43:11Z</time>
      </trkpt>
      <trkpt lat="44.10719" lon="3.51918">
        <ele>1140.0730896699</ele>
        <time>2015-05-17T09:43:33Z</time>
      </trkpt>
      <trkpt lat="44.10721" lon="3.51905">
        <ele>1139.5523856132</ele>
        <time>2015-05-17T09:43:33Z</time>
      </trkpt>
      <trkpt lat="44.10722" lon="3.51903">
        <ele>1139.5523856132</ele>
        <time>2015-05-17T09:43:34Z</time>
      </trkpt>
      <trkpt lat="44.10723" lon="3.51868">
        <ele>1139.2298510961</ele>
        <time>2015-05-17T09:43:55Z</time>
      </trkpt>
      <trkpt lat="44.10723" lon="3.51865">
        <ele>1139.2298510961</ele>
        <time>2015-05-17T09:43:57Z</time>
      </trkpt>
      <trkpt lat="44.10714" lon="3.51822">
        <ele>1139.1004695617</ele>
        <time>2015-05-17T09:44:35Z</time>
      </trkpt>
      <trkpt lat="44.10706" lon="3.51805">
        <ele>1139.1446998377</ele>
        <time>2015-05-17T09:44:52Z</time>
      </trkpt>
      <trkpt lat="44.10706" lon="3.518">
        <ele>1139.1446998377</ele>
        <time>2015-05-17T09:44:52Z</time>
      </trkpt>
      <trkpt lat="44.10709" lon="3.51793">
        <ele>1139.3007871194</ele>
        <time>2015-05-17T09:44:57Z</time>
      </trkpt>
      <trkpt lat="44.1071" lon="3.51787">
        <ele>1139.3007871194</ele>
        <time>2015-05-17T09:45:02Z</time>
      </trkpt>
      <trkpt lat="44.10714" lon="3.51776">
        <ele>1139.5112821824</ele>
        <time>2015-05-17T09:45:17Z</time>
      </trkpt>
      <trkpt lat="44.10715" lon="3.51776">
        <ele>1139.5112821824</ele>
        <time>2015-05-17T09:45:17Z</time>
      </trkpt>
      <trkpt lat="44.10731" lon="3.51729">
        <ele>1139.3770300417</ele>
        <time>2015-05-17T09:45:58Z</time>
      </trkpt>
      <trkpt lat="44.1074" lon="3.51689">
        <ele>1139.1201239399</ele>
        <time>2015-05-17T09:46:28Z</time>
      </trkpt>
      <trkpt lat="44.10742" lon="3.51682">
        <ele>1139.1201239399</ele>
        <time>2015-05-17T09:46:28Z</time>
      </trkpt>
      <trkpt lat="44.10751" lon="3.5164">
        <ele>1138.6297523987</ele>
        <time>2015-05-17T09:46:56Z</time>
      </trkpt>
      <trkpt lat="44.10752" lon="3.51639">
        <ele>1138.6297523987</ele>
        <time>2015-05-17T09:46:57Z</time>
      </trkpt>
      <trkpt lat="44.10755" lon="3.51628">
        <ele>1138.121060002</ele>
        <time>2015-05-17T09:47:05Z</time>
      </trkpt>
      <trkpt lat="44.10756" lon="3.51626">
        <ele>1138.121060002</ele>
        <time>2015-05-17T09:47:10Z</time>
      </trkpt>
      <trkpt lat="44.10756" lon="3.51621">
        <ele>1138.121060002</ele>
        <time>2015-05-17T09:47:18Z</time>
      </trkpt>
      <trkpt lat="44.10763" lon="3.51601">
        <ele>1137.5053352293</ele>
        <time>2015-05-17T09:47:35Z</time>
      </trkpt>
      <trkpt lat="44.10784" lon="3.51564">
        <ele>1136.4702259987</ele>
        <time>2015-05-17T09:47:58Z</time>
      </trkpt>
      <trkpt lat="44.10787" lon="3.51558">
        <ele>1136.4702259987</ele>
        <time>2015-05-17T09:48:02Z</time>
      </trkpt>
      <trkpt lat="44.10808" lon="3.5151">
        <ele>1135.3328890752</ele>
        <time>2015-05-17T09:48:36Z</time>
      </trkpt>
      <trkpt lat="44.1081" lon="3.51508">
        <ele>1135.3328890752</ele>
        <time>2015-05-17T09:48:37Z</time>
      </trkpt>
      <trkpt lat="44.10825" lon="3.51479">
        <ele>1134.2722985454</ele>
        <time>2015-05-17T09:48:57Z</time>
      </trkpt>
      <trkpt lat="44.10827" lon="3.51477">
        <ele>1134.2722985454</ele>
        <time>2015-05-17T09:49:56Z</time>
      </trkpt>
      <trkpt lat="44.10864" lon="3.51393">
        <ele>1133.3388914021</ele>
        <time>2015-05-17T09:49:57Z</time>
      </trkpt>
      <trkpt lat="44.10869" lon="3.51383">
        <ele>1133.3388914021</ele>
        <time>2015-05-17T09:50:15Z</time>
      </trkpt>
      <trkpt lat="44.10874" lon="3.5137">
        <ele>1132.377397813</ele>
        <time>2015-05-17T09:50:40Z</time>
      </trkpt>
      <trkpt lat="44.10898" lon="3.51319">
        <ele>1131.3450177656</ele>
        <time>2015-05-17T09:50:57Z</time>
      </trkpt>
      <trkpt lat="44.10941" lon="3.51241">
        <ele>1130.3897424998</ele>
        <time>2015-05-17T09:51:58Z</time>
      </trkpt>
      <trkpt lat="44.10979" lon="3.5115">
        <ele>1129.345942151</ele>
        <time>2015-05-17T09:52:57Z</time>
      </trkpt>
      <trkpt lat="44.10985" lon="3.51137">
        <ele>1128.3919547566</ele>
        <time>2015-05-17T09:53:15Z</time>
      </trkpt>
      <trkpt lat="44.11001" lon="3.51101">
        <ele>1127.635214666</ele>
        <time>2015-05-17T09:53:37Z</time>
      </trkpt>
      <trkpt lat="44.11001" lon="3.51095">
        <ele>1127.635214666</ele>
        <time>2015-05-17T09:53:59Z</time>
      </trkpt>
      <trkpt lat="44.11022" lon="3.51059">
        <ele>1126.7424674033</ele>
        <time>2015-05-17T09:54:37Z</time>
      </trkpt>
      <trkpt lat="44.11024" lon="3.5105">
        <ele>1126.7424674033</ele>
        <time>2015-05-17T09:54:42Z</time>
      </trkpt>
      <trkpt lat="44.11027" lon="3.51045">
        <ele>1125.9674421051</ele>
        <time>2015-05-17T09:54:56Z</time>
      </trkpt>
      <trkpt lat="44.11036" lon="3.51027">
        <ele>1125.0982391534</ele>
        <time>2015-05-17T09:54:57Z</time>
      </trkpt>
      <trkpt lat="44.11075" lon="3.50942">
        <ele>1124.2703276518</ele>
        <time>2015-05-17T09:55:57Z</time>
      </trkpt>
      <trkpt lat="44.11116" lon="3.50858">
        <ele>1123.0759774301</ele>
        <time>2015-05-17T09:56:57Z</time>
      </trkpt>
      <trkpt lat="44.11119" lon="3.50852">
        <ele>1123.0759774301</ele>
        <time>2015-05-17T09:57:06Z</time>
      </trkpt>
      <trkpt lat="44.11136" lon="3.50825">
        <ele>1122.0031812584</ele>
        <time>2015-05-17T09:57:56Z</time>
      </trkpt>
      <trkpt lat="44.11177" lon="3.50806">
        <ele>1121.258826828</ele>
        <time>2015-05-17T09:57:57Z</time>
      </trkpt>
      <trkpt lat="44.11193" lon="3.50707">
        <ele>1120.9040524797</ele>
        <time>2015-05-17T09:58:58Z</time>
      </trkpt>
      <trkpt lat="44.11196" lon="3.507">
        <ele>1120.9040524797</ele>
        <time>2015-05-17T09:59:11Z</time>
      </trkpt>
      <trkpt lat="44.11199" lon="3.50688">
        <ele>1120.8215477284</ele>
        <time>2015-05-17T09:59:37Z</time>
      </trkpt>
      <trkpt lat="44.11216" lon="3.50621">
        <ele>1120.8875142643</ele>
        <time>2015-05-17T09:59:58Z</time>
      </trkpt>
      <trkpt lat="44.11217" lon="3.50614">
        <ele>1120.8875142643</ele>
        <time>2015-05-17T10:00:02Z</time>
      </trkpt>
      <trkpt lat="44.11223" lon="3.50601">
        <ele>1120.9724924171</ele>
        <time>2015-05-17T10:00:18Z</time>
      </trkpt>
      <trkpt lat="44.11243" lon="3.50523">
        <ele>1120.7259764344</ele>
        <time>2015-05-17T10:00:57Z</time>
      </trkpt>
      <trkpt lat="44.11246" lon="3.50515">
        <ele>1120.7259764344</ele>
        <time>2015-05-17T10:01:02Z</time>
      </trkpt>
      <trkpt lat="44.11248" lon="3.50506">
        <ele>1120.5591834976</ele>
        <time>2015-05-17T10:01:07Z</time>
      </trkpt>
      <trkpt lat="44.1125" lon="3.50499">
        <ele>1120.5591834976</ele>
        <time>2015-05-17T10:01:12Z</time>
      </trkpt>
      <trkpt lat="44.11252" lon="3.50491">
        <ele>1120.5503463292</ele>
        <time>2015-05-17T10:01:17Z</time>
      </trkpt>
      <trkpt lat="44.11253" lon="3.50482">
        <ele>1120.5503463292</ele>
        <time>2015-05-17T10:01:22Z</time>
      </trkpt>
      <trkpt lat="44.11252" lon="3.50471">
        <ele>1120.6130676208</ele>
        <time>2015-05-17T10:01:27Z</time>
      </trkpt>
      <trkpt lat="44.11255" lon="3.50463">
        <ele>1120.6130676208</ele>
        <time>2015-05-17T10:01:32Z</time>
      </trkpt>
      <trkpt lat="44.11257" lon="3.50456">
        <ele>1120.6527687608</ele>
        <time>2015-05-17T10:01:37Z</time>
      </trkpt>
      <trkpt lat="44.11259" lon="3.5045">
        <ele>1120.6527687608</ele>
        <time>2015-05-17T10:01:42Z</time>
      </trkpt>
      <trkpt lat="44.11261" lon="3.50441">
        <ele>1120.7693136406</ele>
        <time>2015-05-17T10:01:47Z</time>
      </trkpt>
      <trkpt lat="44.11264" lon="3.50433">
        <ele>1120.7693136406</ele>
        <time>2015-05-17T10:01:52Z</time>
      </trkpt>
      <trkpt lat="44.11265" lon="3.50422">
        <ele>1120.9542245155</ele>
        <time>2015-05-17T10:02:01Z</time>
      </trkpt>
      <trkpt lat="44.11266" lon="3.50414">
        <ele>1120.9542245155</ele>
        <time>2015-05-17T10:02:02Z</time>
      </trkpt>
      <trkpt lat="44.1127" lon="3.50407">
        <ele>1121.0698440193</ele>
        <time>2015-05-17T10:02:12Z</time>
      </trkpt>
      <trkpt lat="44.11275" lon="3.50375">
        <ele>1121.0177343027</ele>
        <time>2015-05-17T10:02:27Z</time>
      </trkpt>
      <trkpt lat="44.11278" lon="3.50366">
        <ele>1121.0177343027</ele>
        <time>2015-05-17T10:02:32Z</time>
      </trkpt>
      <trkpt lat="44.1129" lon="3.50322">
        <ele>1120.7216613238</ele>
        <time>2015-05-17T10:02:58Z</time>
      </trkpt>
      <trkpt lat="44.11292" lon="3.50284">
        <ele>1120.2270543886</ele>
        <time>2015-05-17T10:03:30Z</time>
      </trkpt>
      <trkpt lat="44.11308" lon="3.50232">
        <ele>1119.9513394264</ele>
        <time>2015-05-17T10:03:58Z</time>
      </trkpt>
      <trkpt lat="44.11329" lon="3.50154">
        <ele>1119.4881375497</ele>
        <time>2015-05-17T10:04:49Z</time>
      </trkpt>
      <trkpt lat="44.11332" lon="3.50145">
        <ele>1119.4881375497</ele>
        <time>2015-05-17T10:04:56Z</time>
      </trkpt>
      <trkpt lat="44.11335" lon="3.50141">
        <ele>1119.1388515337</ele>
        <time>2015-05-17T10:04:57Z</time>
      </trkpt>
      <trkpt lat="44.11348" lon="3.50104">
        <ele>1119.0672124367</ele>
        <time>2015-05-17T10:05:19Z</time>
      </trkpt>
      <trkpt lat="44.11363" lon="3.50043">
        <ele>1118.9774751835</ele>
        <time>2015-05-17T10:05:57Z</time>
      </trkpt>
      <trkpt lat="44.11364" lon="3.50036">
        <ele>1118.9774751835</ele>
        <time>2015-05-17T10:06:09Z</time>
      </trkpt>
      <trkpt lat="44.11367" lon="3.49998">
        <ele>1119.1289552216</ele>
        <time>2015-05-17T10:06:23Z</time>
      </trkpt>
      <trkpt lat="44.11376" lon="3.49943">
        <ele>1119.4442701666</ele>
        <time>2015-05-17T10:06:57Z</time>
      </trkpt>
      <trkpt lat="44.11379" lon="3.4993">
        <ele>1119.7936909615</ele>
        <time>2015-05-17T10:07:13Z</time>
      </trkpt>
      <trkpt lat="44.11384" lon="3.49894">
        <ele>1120.3308081194</ele>
        <time>2015-05-17T10:07:25Z</time>
      </trkpt>
      <trkpt lat="44.11385" lon="3.49891">
        <ele>1120.3308081194</ele>
        <time>2015-05-17T10:07:30Z</time>
      </trkpt>
      <trkpt lat="44.114" lon="3.49853">
        <ele>1120.6066228269</ele>
        <time>2015-05-17T10:07:55Z</time>
      </trkpt>
      <trkpt lat="44.11404" lon="3.49845">
        <ele>1120.6066228269</ele>
        <time>2015-05-17T10:07:58Z</time>
      </trkpt>
      <trkpt lat="44.11404" lon="3.49838">
        <ele>1120.8976632601</ele>
        <time>2015-05-17T10:08:07Z</time>
      </trkpt>
      <trkpt lat="44.11411" lon="3.49803">
        <ele>1120.9125565629</ele>
        <time>2015-05-17T10:08:24Z</time>
      </trkpt>
      <trkpt lat="44.11413" lon="3.49798">
        <ele>1120.9125565629</ele>
        <time>2015-05-17T10:08:37Z</time>
      </trkpt>
      <trkpt lat="44.11421" lon="3.49763">
        <ele>1120.7712859128</ele>
        <time>2015-05-17T10:08:49Z</time>
      </trkpt>
      <trkpt lat="44.11425" lon="3.49752">
        <ele>1120.5423004152</ele>
        <time>2015-05-17T10:08:57Z</time>
      </trkpt>
      <trkpt lat="44.11435" lon="3.49713">
        <ele>1119.9290604273</ele>
        <time>2015-05-17T10:09:22Z</time>
      </trkpt>
      <trkpt lat="44.11448" lon="3.49676">
        <ele>1119.0902872771</ele>
        <time>2015-05-17T10:09:51Z</time>
      </trkpt>
      <trkpt lat="44.11452" lon="3.49658">
        <ele>1118.1016787325</ele>
        <time>2015-05-17T10:09:57Z</time>
      </trkpt>
      <trkpt lat="44.11468" lon="3.49556">
        <ele>1116.3421079688</ele>
        <time>2015-05-17T10:10:58Z</time>
      </trkpt>
      <trkpt lat="44.11469" lon="3.49546">
        <ele>1116.3421079688</ele>
        <time>2015-05-17T10:11:10Z</time>
      </trkpt>
      <trkpt lat="44.11491" lon="3.49457">
        <ele>1114.7370331256</ele>
        <time>2015-05-17T10:11:58Z</time>
      </trkpt>
      <trkpt lat="44.11491" lon="3.49452">
        <ele>1114.7370331256</ele>
        <time>2015-05-17T10:12:04Z</time>
      </trkpt>
      <trkpt lat="44.11497" lon="3.49419">
        <ele>1113.2932658792</ele>
        <time>2015-05-17T10:12:36Z</time>
      </trkpt>
      <trkpt lat="44.11518" lon="3.49339">
        <ele>1112.0887351238</ele>
        <time>2015-05-17T10:13:15Z</time>
      </trkpt>
      <trkpt lat="44.11541" lon="3.49267">
        <ele>1110.9067551032</ele>
        <time>2015-05-17T10:13:57Z</time>
      </trkpt>
      <trkpt lat="44.11542" lon="3.49252">
        <ele>1109.8635334325</ele>
        <time>2015-05-17T10:14:13Z</time>
      </trkpt>
      <trkpt lat="44.11558" lon="3.49157">
        <ele>1109.354562301</ele>
        <time>2015-05-17T10:15:02Z</time>
      </trkpt>
      <trkpt lat="44.1156" lon="3.49141">
        <ele>1108.9809771086</ele>
        <time>2015-05-17T10:15:17Z</time>
      </trkpt>
      <trkpt lat="44.11499" lon="3.49116">
        <ele>1108.7330933962</ele>
        <time>2015-05-17T10:16:19Z</time>
      </trkpt>
      <trkpt lat="44.11489" lon="3.49112">
        <ele>1108.5006891743</ele>
        <time>2015-05-17T10:16:44Z</time>
      </trkpt>
      <trkpt lat="44.11465" lon="3.49059">
        <ele>1108.0951115579</ele>
        <time>2015-05-17T10:16:58Z</time>
      </trkpt>
      <trkpt lat="44.11461" lon="3.49049">
        <ele>1108.0951115579</ele>
        <time>2015-05-17T10:17:05Z</time>
      </trkpt>
      <trkpt lat="44.11461" lon="3.49043">
        <ele>1107.6734909458</ele>
        <time>2015-05-17T10:17:11Z</time>
      </trkpt>
      <trkpt lat="44.1145" lon="3.48948">
        <ele>1107.0067549062</ele>
        <time>2015-05-17T10:18:05Z</time>
      </trkpt>
      <trkpt lat="44.11449" lon="3.48937">
        <ele>1107.0067549062</ele>
        <time>2015-05-17T10:18:07Z</time>
      </trkpt>
      <trkpt lat="44.1145" lon="3.48928">
        <ele>1106.3588967198</ele>
        <time>2015-05-17T10:18:12Z</time>
      </trkpt>
      <trkpt lat="44.11449" lon="3.48916">
        <ele>1106.3588967198</ele>
        <time>2015-05-17T10:18:19Z</time>
      </trkpt>
      <trkpt lat="44.11449" lon="3.48911">
        <ele>1105.8591580755</ele>
        <time>2015-05-17T10:18:23Z</time>
      </trkpt>
      <trkpt lat="44.11424" lon="3.48641">
        <ele>1105.4106867606</ele>
        <time>2015-05-17T10:20:57Z</time>
      </trkpt>
      <trkpt lat="44.11422" lon="3.48636">
        <ele>1105.4106867606</ele>
        <time>2015-05-17T10:21:09Z</time>
      </trkpt>
      <trkpt lat="44.11422" lon="3.48437">
        <ele>1105.3415063604</ele>
        <time>2015-05-17T10:22:58Z</time>
      </trkpt>
      <trkpt lat="44.11421" lon="3.48427">
        <ele>1105.3415063604</ele>
        <time>2015-05-17T10:23:10Z</time>
      </trkpt>
      <trkpt lat="44.11422" lon="3.48413">
        <ele>1105.4356637433</ele>
        <time>2015-05-17T10:23:29Z</time>
      </trkpt>
      <trkpt lat="44.11408" lon="3.48386">
        <ele>1105.4205421577</ele>
        <time>2015-05-17T10:23:37Z</time>
      </trkpt>
      <trkpt lat="44.11383" lon="3.48353">
        <ele>1105.245602742</ele>
        <time>2015-05-17T10:23:59Z</time>
      </trkpt>
      <trkpt lat="44.11381" lon="3.48345">
        <ele>1105.245602742</ele>
        <time>2015-05-17T10:24:11Z</time>
      </trkpt>
      <trkpt lat="44.11358" lon="3.48252">
        <ele>1104.3024253185</ele>
        <time>2015-05-17T10:25:00Z</time>
      </trkpt>
      <trkpt lat="44.11358" lon="3.4825">
        <ele>1104.3024253185</ele>
        <time>2015-05-17T10:25:00Z</time>
      </trkpt>
      <trkpt lat="44.1135" lon="3.48212">
        <ele>1103.3120201141</ele>
        <time>2015-05-17T10:25:26Z</time>
      </trkpt>
      <trkpt lat="44.11349" lon="3.48205">
        <ele>1103.3120201141</ele>
        <time>2015-05-17T10:25:30Z</time>
      </trkpt>
      <trkpt lat="44.11342" lon="3.48167">
        <ele>1102.3084656395</ele>
        <time>2015-05-17T10:25:55Z</time>
      </trkpt>
      <trkpt lat="44.11335" lon="3.48155">
        <ele>1101.3089492359</ele>
        <time>2015-05-17T10:25:55Z</time>
      </trkpt>
      <trkpt lat="44.11333" lon="3.48111">
        <ele>1100.4446556356</ele>
        <time>2015-05-17T10:26:28Z</time>
      </trkpt>
      <trkpt lat="44.11326" lon="3.48077">
        <ele>1099.8655549407</ele>
        <time>2015-05-17T10:26:42Z</time>
      </trkpt>
      <trkpt lat="44.11325" lon="3.48042">
        <ele>1099.522433434</ele>
        <time>2015-05-17T10:27:09Z</time>
      </trkpt>
      <trkpt lat="44.11324" lon="3.48034">
        <ele>1099.522433434</ele>
        <time>2015-05-17T10:27:09Z</time>
      </trkpt>
      <trkpt lat="44.1132" lon="3.4799">
        <ele>1099.4410637352</ele>
        <time>2015-05-17T10:27:36Z</time>
      </trkpt>
      <trkpt lat="44.11322" lon="3.47983">
        <ele>1099.4410637352</ele>
        <time>2015-05-17T10:27:45Z</time>
      </trkpt>
      <trkpt lat="44.11334" lon="3.47954">
        <ele>1099.7166263911</ele>
        <time>2015-05-17T10:28:03Z</time>
      </trkpt>
      <trkpt lat="44.11347" lon="3.47942">
        <ele>1100.1768929385</ele>
        <time>2015-05-17T10:28:12Z</time>
      </trkpt>
      <trkpt lat="44.11348" lon="3.4794">
        <ele>1100.1768929385</ele>
        <time>2015-05-17T10:28:13Z</time>
      </trkpt>
      <trkpt lat="44.11395" lon="3.47904">
        <ele>1101.0940931141</ele>
        <time>2015-05-17T10:28:57Z</time>
      </trkpt>
      <trkpt lat="44.11404" lon="3.479">
        <ele>1102.1427319175</ele>
        <time>2015-05-17T10:29:04Z</time>
      </trkpt>
      <trkpt lat="44.11429" lon="3.47888">
        <ele>1103.8278894038</ele>
        <time>2015-05-17T10:29:34Z</time>
      </trkpt>
      <trkpt lat="44.11468" lon="3.47872">
        <ele>1105.7367023633</ele>
        <time>2015-05-17T10:29:58Z</time>
      </trkpt>
      <trkpt lat="44.11473" lon="3.47869">
        <ele>1105.7367023633</ele>
        <time>2015-05-17T10:30:02Z</time>
      </trkpt>
      <trkpt lat="44.11484" lon="3.4787">
        <ele>1107.5148684491</ele>
        <time>2015-05-17T10:30:11Z</time>
      </trkpt>
      <trkpt lat="44.11524" lon="3.47838">
        <ele>1109.6559648538</ele>
        <time>2015-05-17T10:30:49Z</time>
      </trkpt>
      <trkpt lat="44.11531" lon="3.47823">
        <ele>1111.6652267655</ele>
        <time>2015-05-17T10:30:58Z</time>
      </trkpt>
      <trkpt lat="44.11537" lon="3.47804">
        <ele>1113.6323088299</ele>
        <time>2015-05-17T10:31:11Z</time>
      </trkpt>
      <trkpt lat="44.1155" lon="3.47773">
        <ele>1115.5252042588</ele>
        <time>2015-05-17T10:31:30Z</time>
      </trkpt>
      <trkpt lat="44.11552" lon="3.47768">
        <ele>1115.5252042588</ele>
        <time>2015-05-17T10:31:42Z</time>
      </trkpt>
      <trkpt lat="44.11555" lon="3.47755">
        <ele>1117.3722169661</ele>
        <time>2015-05-17T10:31:48Z</time>
      </trkpt>
      <trkpt lat="44.11557" lon="3.47725">
        <ele>1119.2574619173</ele>
        <time>2015-05-17T10:31:58Z</time>
      </trkpt>
      <trkpt lat="44.1156" lon="3.47715">
        <ele>1119.2574619173</ele>
        <time>2015-05-17T10:32:05Z</time>
      </trkpt>
      <trkpt lat="44.11561" lon="3.47711">
        <ele>1120.9130264111</ele>
        <time>2015-05-17T10:32:11Z</time>
      </trkpt>
      <trkpt lat="44.11564" lon="3.47681">
        <ele>1122.4805551209</ele>
        <time>2015-05-17T10:32:28Z</time>
      </trkpt>
      <trkpt lat="44.11544" lon="3.47653">
        <ele>1123.6737489896</ele>
        <time>2015-05-17T10:32:53Z</time>
      </trkpt>
      <trkpt lat="44.11541" lon="3.47647">
        <ele>1123.6737489896</ele>
        <time>2015-05-17T10:32:59Z</time>
      </trkpt>
      <trkpt lat="44.11541" lon="3.47644">
        <ele>1123.6737489896</ele>
        <time>2015-05-17T10:33:07Z</time>
      </trkpt>
      <trkpt lat="44.11539" lon="3.47636">
        <ele>1124.2429400641</ele>
        <time>2015-05-17T10:33:16Z</time>
      </trkpt>
      <trkpt lat="44.11532" lon="3.47597">
        <ele>1124.7224779424</ele>
        <time>2015-05-17T10:33:51Z</time>
      </trkpt>
      <trkpt lat="44.11531" lon="3.47596">
        <ele>1124.7224779424</ele>
        <time>2015-05-17T10:33:52Z</time>
      </trkpt>
      <trkpt lat="44.1153" lon="3.47595">
        <ele>1124.7224779424</ele>
        <time>2015-05-17T10:34:32Z</time>
      </trkpt>
      <trkpt lat="44.11528" lon="3.47592">
        <ele>1124.7224779424</ele>
        <time>2015-05-17T10:34:48Z</time>
      </trkpt>
      <trkpt lat="44.11528" lon="3.47592">
        <ele>1124.7224779424</ele>
        <time>2015-05-17T10:34:52Z</time>
      </trkpt>
      <trkpt lat="44.11535" lon="3.47591">
        <ele>1125.5213782561</ele>
        <time>2015-05-17T10:37:57Z</time>
      </trkpt>
      <trkpt lat="44.11527" lon="3.47596">
        <ele>1125.5213782561</ele>
        <time>2015-05-17T10:39:02Z</time>
      </trkpt>
      <trkpt lat="44.11517" lon="3.47592">
        <ele>1126.4558107753</ele>
        <time>2015-05-17T10:40:07Z</time>
      </trkpt>
      <trkpt lat="44.11511" lon="3.47603">
        <ele>1127.2687270284</ele>
        <time>2015-05-17T10:40:50Z</time>
      </trkpt>
      <trkpt lat="44.11531" lon="3.47599">
        <ele>1128.1547558956</ele>
        <time>2015-05-17T10:41:06Z</time>
      </trkpt>
      <trkpt lat="44.1153" lon="3.47595">
        <ele>1128.1547558956</ele>
        <time>2015-05-17T10:43:58Z</time>
      </trkpt>
      <trkpt lat="44.11527" lon="3.4761">
        <ele>1128.8762177379</ele>
        <time>2015-05-17T10:45:02Z</time>
      </trkpt>
      <trkpt lat="44.11531" lon="3.47619">
        <ele>1128.8762177379</ele>
        <time>2015-05-17T10:45:07Z</time>
      </trkpt>
      <trkpt lat="44.11533" lon="3.47626">
        <ele>1129.3575772045</ele>
        <time>2015-05-17T10:45:19Z</time>
      </trkpt>
      <trkpt lat="44.1157" lon="3.47707">
        <ele>1129.2558154121</ele>
        <time>2015-05-17T10:46:57Z</time>
      </trkpt>
      <trkpt lat="44.11614" lon="3.47743">
        <ele>1128.9321670565</ele>
        <time>2015-05-17T10:47:04Z</time>
      </trkpt>
      <trkpt lat="44.11616" lon="3.47746">
        <ele>1128.9321670565</ele>
        <time>2015-05-17T10:47:12Z</time>
      </trkpt>
      <trkpt lat="44.11636" lon="3.47817">
        <ele>1129.0102636159</ele>
        <time>2015-05-17T10:48:02Z</time>
      </trkpt>
      <trkpt lat="44.11651" lon="3.47856">
        <ele>1129.1013310492</ele>
        <time>2015-05-17T10:48:37Z</time>
      </trkpt>
      <trkpt lat="44.11661" lon="3.47881">
        <ele>1129.2054638707</ele>
        <time>2015-05-17T10:49:03Z</time>
      </trkpt>
      <trkpt lat="44.11701" lon="3.47904">
        <ele>1129.020138063</ele>
        <time>2015-05-17T10:49:59Z</time>
      </trkpt>
      <trkpt lat="44.11703" lon="3.479">
        <ele>1129.020138063</ele>
        <time>2015-05-17T10:51:02Z</time>
      </trkpt>
      <trkpt lat="44.11706" lon="3.47903">
        <ele>1129.020138063</ele>
        <time>2015-05-17T10:51:12Z</time>
      </trkpt>
      <trkpt lat="44.11709" lon="3.47909">
        <ele>1128.0353354684</ele>
        <time>2015-05-17T10:51:17Z</time>
      </trkpt>
      <trkpt lat="44.11723" lon="3.47904">
        <ele>1126.7751503285</ele>
        <time>2015-05-17T10:51:57Z</time>
      </trkpt>
      <trkpt lat="44.11747" lon="3.47898">
        <ele>1125.120705791</ele>
        <time>2015-05-17T10:52:47Z</time>
      </trkpt>
      <trkpt lat="44.11768" lon="3.47902">
        <ele>1123.5538264077</ele>
        <time>2015-05-17T10:53:10Z</time>
      </trkpt>
      <trkpt lat="44.11788" lon="3.47902">
        <ele>1122.1604088238</ele>
        <time>2015-05-17T10:53:39Z</time>
      </trkpt>
      <trkpt lat="44.11796" lon="3.47904">
        <ele>1122.1604088238</ele>
        <time>2015-05-17T10:53:52Z</time>
      </trkpt>
      <trkpt lat="44.11804" lon="3.47906">
        <ele>1120.8177715981</ele>
        <time>2015-05-17T10:54:01Z</time>
      </trkpt>
      <trkpt lat="44.11804" lon="3.47906">
        <ele>1120.8177715981</ele>
        <time>2015-05-17T10:54:02Z</time>
      </trkpt>
      <trkpt lat="44.11824" lon="3.47898">
        <ele>1119.7291072681</ele>
        <time>2015-05-17T10:54:46Z</time>
      </trkpt>
      <trkpt lat="44.11825" lon="3.47899">
        <ele>1119.7291072681</ele>
        <time>2015-05-17T10:54:49Z</time>
      </trkpt>
      <trkpt lat="44.11859" lon="3.47922">
        <ele>1118.6928170075</ele>
        <time>2015-05-17T10:55:21Z</time>
      </trkpt>
      <trkpt lat="44.11873" lon="3.47931">
        <ele>1117.7092465732</ele>
        <time>2015-05-17T10:55:43Z</time>
      </trkpt>
      <trkpt lat="44.1187" lon="3.47947">
        <ele>1116.8649647375</ele>
        <time>2015-05-17T10:56:04Z</time>
      </trkpt>
      <trkpt lat="44.11892" lon="3.4803">
        <ele>1115.6488569357</ele>
        <time>2015-05-17T10:57:02Z</time>
      </trkpt>
      <trkpt lat="44.11897" lon="3.48034">
        <ele>1115.6488569357</ele>
        <time>2015-05-17T10:57:49Z</time>
      </trkpt>
      <trkpt lat="44.11902" lon="3.48053">
        <ele>1114.1215247334</ele>
        <time>2015-05-17T10:57:59Z</time>
      </trkpt>
      <trkpt lat="44.11902" lon="3.48061">
        <ele>1114.1215247334</ele>
        <time>2015-05-17T10:58:04Z</time>
      </trkpt>
      <trkpt lat="44.11904" lon="3.48084">
        <ele>1112.5272439992</ele>
        <time>2015-05-17T10:58:21Z</time>
      </trkpt>
      <trkpt lat="44.11904" lon="3.4809">
        <ele>1112.5272439992</ele>
        <time>2015-05-17T10:58:29Z</time>
      </trkpt>
      <trkpt lat="44.11911" lon="3.4815">
        <ele>1110.7609789779</ele>
        <time>2015-05-17T10:58:58Z</time>
      </trkpt>
      <trkpt lat="44.11913" lon="3.48153">
        <ele>1110.7609789779</ele>
        <time>2015-05-17T10:59:02Z</time>
      </trkpt>
      <trkpt lat="44.11916" lon="3.48153">
        <ele>1110.7609789779</ele>
        <time>2015-05-17T10:59:09Z</time>
      </trkpt>
      <trkpt lat="44.11919" lon="3.48155">
        <ele>1109.1148847665</ele>
        <time>2015-05-17T10:59:12Z</time>
      </trkpt>
      <trkpt lat="44.11924" lon="3.48159">
        <ele>1109.1148847665</ele>
        <time>2015-05-17T10:59:17Z</time>
      </trkpt>
      <trkpt lat="44.11964" lon="3.48213">
        <ele>1107.8447916784</ele>
        <time>2015-05-17T11:00:04Z</time>
      </trkpt>
      <trkpt lat="44.11973" lon="3.48219">
        <ele>1106.624527463</ele>
        <time>2015-05-17T11:00:10Z</time>
      </trkpt>
      <trkpt lat="44.11974" lon="3.48219">
        <ele>1106.624527463</ele>
        <time>2015-05-17T11:00:20Z</time>
      </trkpt>
      <trkpt lat="44.11985" lon="3.48227">
        <ele>1105.6560045608</ele>
        <time>2015-05-17T11:00:29Z</time>
      </trkpt>
      <trkpt lat="44.12032" lon="3.48251">
        <ele>1105.2551709222</ele>
        <time>2015-05-17T11:01:10Z</time>
      </trkpt>
      <trkpt lat="44.12079" lon="3.48273">
        <ele>1105.7851052601</ele>
        <time>2015-05-17T11:02:02Z</time>
      </trkpt>
      <trkpt lat="44.12082" lon="3.4828">
        <ele>1105.7851052601</ele>
        <time>2015-05-17T11:02:08Z</time>
      </trkpt>
      <trkpt lat="44.12087" lon="3.48294">
        <ele>1106.6139425836</ele>
        <time>2015-05-17T11:02:20Z</time>
      </trkpt>
      <trkpt lat="44.12106" lon="3.48353">
        <ele>1107.9911355873</ele>
        <time>2015-05-17T11:03:12Z</time>
      </trkpt>
      <trkpt lat="44.12119" lon="3.48402">
        <ele>1109.8435510905</ele>
        <time>2015-05-17T11:03:58Z</time>
      </trkpt>
      <trkpt lat="44.12124" lon="3.48412">
        <ele>1109.8435510905</ele>
        <time>2015-05-17T11:04:04Z</time>
      </trkpt>
      <trkpt lat="44.12148" lon="3.48449">
        <ele>1111.8138017233</ele>
        <time>2015-05-17T11:04:58Z</time>
      </trkpt>
      <trkpt lat="44.12157" lon="3.48456">
        <ele>1113.6856606285</ele>
        <time>2015-05-17T11:05:17Z</time>
      </trkpt>
      <trkpt lat="44.12161" lon="3.4846">
        <ele>1113.6856606285</ele>
        <time>2015-05-17T11:05:22Z</time>
      </trkpt>
      <trkpt lat="44.12165" lon="3.48461">
        <ele>1113.6856606285</ele>
        <time>2015-05-17T11:05:27Z</time>
      </trkpt>
      <trkpt lat="44.12175" lon="3.48455">
        <ele>1115.4463740314</ele>
        <time>2015-05-17T11:05:57Z</time>
      </trkpt>
      <trkpt lat="44.12178" lon="3.48416">
        <ele>1117.1132466333</ele>
        <time>2015-05-17T11:06:13Z</time>
      </trkpt>
      <trkpt lat="44.12168" lon="3.48387">
        <ele>1118.7458131627</ele>
        <time>2015-05-17T11:06:58Z</time>
      </trkpt>
      <trkpt lat="44.12178" lon="3.48331">
        <ele>1120.9613855315</ele>
        <time>2015-05-17T11:07:12Z</time>
      </trkpt>
      <trkpt lat="44.12179" lon="3.48323">
        <ele>1120.9613855315</ele>
        <time>2015-05-17T11:07:23Z</time>
      </trkpt>
      <trkpt lat="44.12182" lon="3.48316">
        <ele>1123.2927286019</ele>
        <time>2015-05-17T11:07:23Z</time>
      </trkpt>
      <trkpt lat="44.12217" lon="3.48298">
        <ele>1125.99839107</ele>
        <time>2015-05-17T11:07:58Z</time>
      </trkpt>
      <trkpt lat="44.12221" lon="3.48296">
        <ele>1125.99839107</ele>
        <time>2015-05-17T11:08:02Z</time>
      </trkpt>
      <trkpt lat="44.12251" lon="3.48282">
        <ele>1129.9222163694</ele>
        <time>2015-05-17T11:09:49Z</time>
      </trkpt>
      <trkpt lat="44.12268" lon="3.48318">
        <ele>1133.5225431515</ele>
        <time>2015-05-17T11:09:58Z</time>
      </trkpt>
      <trkpt lat="44.12275" lon="3.48339">
        <ele>1137.3318908782</ele>
        <time>2015-05-17T11:10:04Z</time>
      </trkpt>
      <trkpt lat="44.12277" lon="3.48344">
        <ele>1137.3318908782</ele>
        <time>2015-05-17T11:10:13Z</time>
      </trkpt>
      <trkpt lat="44.12288" lon="3.48417">
        <ele>1141.2523523282</ele>
        <time>2015-05-17T11:10:59Z</time>
      </trkpt>
      <trkpt lat="44.12289" lon="3.48423">
        <ele>1141.2523523282</ele>
        <time>2015-05-17T11:11:02Z</time>
      </trkpt>
      <trkpt lat="44.12288" lon="3.48436">
        <ele>1145.0057116319</ele>
        <time>2015-05-17T11:11:18Z</time>
      </trkpt>
      <trkpt lat="44.12288" lon="3.48442">
        <ele>1145.0057116319</ele>
        <time>2015-05-17T11:11:22Z</time>
      </trkpt>
      <trkpt lat="44.12287" lon="3.48446">
        <ele>1145.0057116319</ele>
        <time>2015-05-17T11:11:32Z</time>
      </trkpt>
      <trkpt lat="44.12296" lon="3.48452">
        <ele>1149.1562681928</ele>
        <time>2015-05-17T11:11:43Z</time>
      </trkpt>
      <trkpt lat="44.12297" lon="3.48452">
        <ele>1149.1562681928</ele>
        <time>2015-05-17T11:11:44Z</time>
      </trkpt>
      <trkpt lat="44.12302" lon="3.48442">
        <ele>1152.9721801628</ele>
        <time>2015-05-17T11:11:54Z</time>
      </trkpt>
      <trkpt lat="44.12303" lon="3.48435">
        <ele>1152.9721801628</ele>
        <time>2015-05-17T11:11:58Z</time>
      </trkpt>
      <trkpt lat="44.12302" lon="3.48429">
        <ele>1156.5835367793</ele>
        <time>2015-05-17T11:12:03Z</time>
      </trkpt>
      <trkpt lat="44.12302" lon="3.48417">
        <ele>1156.5835367793</ele>
        <time>2015-05-17T11:12:16Z</time>
      </trkpt>
      <trkpt lat="44.12307" lon="3.48386">
        <ele>1159.9243225678</ele>
        <time>2015-05-17T11:12:32Z</time>
      </trkpt>
      <trkpt lat="44.12308" lon="3.48382">
        <ele>1159.9243225678</ele>
        <time>2015-05-17T11:12:34Z</time>
      </trkpt>
      <trkpt lat="44.1231" lon="3.48374">
        <ele>1159.9243225678</ele>
        <time>2015-05-17T11:12:41Z</time>
      </trkpt>
      <trkpt lat="44.12313" lon="3.4834">
        <ele>1163.0640630418</ele>
        <time>2015-05-17T11:13:00Z</time>
      </trkpt>
      <trkpt lat="44.12315" lon="3.48335">
        <ele>1163.0640630418</ele>
        <time>2015-05-17T11:13:04Z</time>
      </trkpt>
      <trkpt lat="44.12316" lon="3.48332">
        <ele>1163.0640630418</ele>
        <time>2015-05-17T11:13:15Z</time>
      </trkpt>
      <trkpt lat="44.12341" lon="3.48273">
        <ele>1166.1976799266</ele>
        <time>2015-05-17T11:13:58Z</time>
      </trkpt>
      <trkpt lat="44.12345" lon="3.48258">
        <ele>1169.1025256243</ele>
        <time>2015-05-17T11:14:02Z</time>
      </trkpt>
      <trkpt lat="44.12366" lon="3.48198">
        <ele>1172.2216960787</ele>
        <time>2015-05-17T11:14:52Z</time>
      </trkpt>
      <trkpt lat="44.12368" lon="3.48178">
        <ele>1175.3457053412</ele>
        <time>2015-05-17T11:15:01Z</time>
      </trkpt>
      <trkpt lat="44.12368" lon="3.48177">
        <ele>1175.3457053412</ele>
        <time>2015-05-17T11:15:02Z</time>
      </trkpt>
      <trkpt lat="44.12371" lon="3.48172">
        <ele>1175.3457053412</ele>
        <time>2015-05-17T11:15:09Z</time>
      </trkpt>
      <trkpt lat="44.12377" lon="3.48155">
        <ele>1178.2951004888</ele>
        <time>2015-05-17T11:15:18Z</time>
      </trkpt>
      <trkpt lat="44.12383" lon="3.48136">
        <ele>1181.1493355265</ele>
        <time>2015-05-17T11:15:38Z</time>
      </trkpt>
      <trkpt lat="44.12386" lon="3.48127">
        <ele>1181.1493355265</ele>
        <time>2015-05-17T11:15:47Z</time>
      </trkpt>
      <trkpt lat="44.12394" lon="3.4809">
        <ele>1184.4004614205</ele>
        <time>2015-05-17T11:16:00Z</time>
      </trkpt>
      <trkpt lat="44.12416" lon="3.48081">
        <ele>1187.4803226902</ele>
        <time>2015-05-17T11:16:22Z</time>
      </trkpt>
      <trkpt lat="44.12418" lon="3.48079">
        <ele>1187.4803226902</ele>
        <time>2015-05-17T11:16:43Z</time>
      </trkpt>
      <trkpt lat="44.1242" lon="3.48082">
        <ele>1187.4803226902</ele>
        <time>2015-05-17T11:17:02Z</time>
      </trkpt>
      <trkpt lat="44.12416" lon="3.48083">
        <ele>1190.0361525007</ele>
        <time>2015-05-17T11:17:07Z</time>
      </trkpt>
      <trkpt lat="44.12415" lon="3.48127">
        <ele>1192.5210023126</ele>
        <time>2015-05-17T11:17:59Z</time>
      </trkpt>
      <trkpt lat="44.12418" lon="3.48141">
        <ele>1194.6777467699</ele>
        <time>2015-05-17T11:18:09Z</time>
      </trkpt>
      <trkpt lat="44.12417" lon="3.48169">
        <ele>1196.5286877257</ele>
        <time>2015-05-17T11:18:21Z</time>
      </trkpt>
      <trkpt lat="44.12417" lon="3.4817">
        <ele>1196.5286877257</ele>
        <time>2015-05-17T11:18:22Z</time>
      </trkpt>
      <trkpt lat="44.12416" lon="3.48181">
        <ele>1198.1099647178</ele>
        <time>2015-05-17T11:18:43Z</time>
      </trkpt>
      <trkpt lat="44.12412" lon="3.48203">
        <ele>1199.6577686204</ele>
        <time>2015-05-17T11:18:55Z</time>
      </trkpt>
      <trkpt lat="44.12405" lon="3.48223">
        <ele>1201.1029910332</ele>
        <time>2015-05-17T11:19:00Z</time>
      </trkpt>
      <trkpt lat="44.12404" lon="3.48227">
        <ele>1201.1029910332</ele>
        <time>2015-05-17T11:19:12Z</time>
      </trkpt>
      <trkpt lat="44.12398" lon="3.48232">
        <ele>1202.4685191403</ele>
        <time>2015-05-17T11:19:22Z</time>
      </trkpt>
      <trkpt lat="44.12397" lon="3.48269">
        <ele>1203.4732975446</ele>
        <time>2015-05-17T11:20:02Z</time>
      </trkpt>
      <trkpt lat="44.12396" lon="3.48365">
        <ele>1204.5209730373</ele>
        <time>2015-05-17T11:20:59Z</time>
      </trkpt>
      <trkpt lat="44.12396" lon="3.48368">
        <ele>1204.5209730373</ele>
        <time>2015-05-17T11:21:07Z</time>
      </trkpt>
      <trkpt lat="44.12394" lon="3.48386">
        <ele>1205.2793917433</ele>
        <time>2015-05-17T11:21:14Z</time>
      </trkpt>
      <trkpt lat="44.12393" lon="3.48468">
        <ele>1206.0757994928</ele>
        <time>2015-05-17T11:22:06Z</time>
      </trkpt>
      <trkpt lat="44.12391" lon="3.48476">
        <ele>1206.0757994928</ele>
        <time>2015-05-17T11:22:06Z</time>
      </trkpt>
      <trkpt lat="44.12407" lon="3.48566">
        <ele>1207.0116234393</ele>
        <time>2015-05-17T11:23:00Z</time>
      </trkpt>
      <trkpt lat="44.12408" lon="3.48569">
        <ele>1207.0116234393</ele>
        <time>2015-05-17T11:23:02Z</time>
      </trkpt>
      <trkpt lat="44.1241" lon="3.48576">
        <ele>1207.0116234393</ele>
        <time>2015-05-17T11:23:13Z</time>
      </trkpt>
      <trkpt lat="44.12413" lon="3.48586">
        <ele>1207.7914155194</ele>
        <time>2015-05-17T11:23:15Z</time>
      </trkpt>
      <trkpt lat="44.12418" lon="3.48616">
        <ele>1208.4877870752</ele>
        <time>2015-05-17T11:23:38Z</time>
      </trkpt>
      <trkpt lat="44.12427" lon="3.48696">
        <ele>1209.1682864502</ele>
        <time>2015-05-17T11:24:39Z</time>
      </trkpt>
      <trkpt lat="44.12426" lon="3.48725">
        <ele>1209.7226339995</ele>
        <time>2015-05-17T11:24:56Z</time>
      </trkpt>
      <trkpt lat="44.12425" lon="3.48748">
        <ele>1210.2219476978</ele>
        <time>2015-05-17T11:25:04Z</time>
      </trkpt>
      <trkpt lat="44.12425" lon="3.48751">
        <ele>1210.2219476978</ele>
        <time>2015-05-17T11:25:13Z</time>
      </trkpt>
      <trkpt lat="44.12426" lon="3.4876">
        <ele>1210.6313937372</ele>
        <time>2015-05-17T11:25:13Z</time>
      </trkpt>
      <trkpt lat="44.1243" lon="3.48811">
        <ele>1211.1495104785</ele>
        <time>2015-05-17T11:26:00Z</time>
      </trkpt>
      <trkpt lat="44.1243" lon="3.48813">
        <ele>1211.1495104785</ele>
        <time>2015-05-17T11:26:02Z</time>
      </trkpt>
      <trkpt lat="44.12427" lon="3.48835">
        <ele>1211.4699400196</ele>
        <time>2015-05-17T11:26:54Z</time>
      </trkpt>
      <trkpt lat="44.12415" lon="3.48874">
        <ele>1212.0731331109</ele>
        <time>2015-05-17T11:27:10Z</time>
      </trkpt>
      <trkpt lat="44.12409" lon="3.48877">
        <ele>1212.0731331109</ele>
        <time>2015-05-17T11:27:34Z</time>
      </trkpt>
      <trkpt lat="44.124" lon="3.48891">
        <ele>1212.8701926763</ele>
        <time>2015-05-17T11:27:58Z</time>
      </trkpt>
      <trkpt lat="44.12394" lon="3.48897">
        <ele>1212.8701926763</ele>
        <time>2015-05-17T11:28:04Z</time>
      </trkpt>
      <trkpt lat="44.12391" lon="3.48902">
        <ele>1213.8357950385</ele>
        <time>2015-05-17T11:28:15Z</time>
      </trkpt>
      <trkpt lat="44.1238" lon="3.48921">
        <ele>1214.960351621</ele>
        <time>2015-05-17T11:29:02Z</time>
      </trkpt>
      <trkpt lat="44.12377" lon="3.48916">
        <ele>1214.960351621</ele>
        <time>2015-05-17T11:29:20Z</time>
      </trkpt>
      <trkpt lat="44.12377" lon="3.48918">
        <ele>1214.960351621</ele>
        <time>2015-05-17T11:29:22Z</time>
      </trkpt>
      <trkpt lat="44.12376" lon="3.48923">
        <ele>1216.6956216839</ele>
        <time>2015-05-17T11:29:27Z</time>
      </trkpt>
      <trkpt lat="44.12369" lon="3.4896">
        <ele>1218.4640312198</ele>
        <time>2015-05-17T11:30:00Z</time>
      </trkpt>
      <trkpt lat="44.12369" lon="3.48962">
        <ele>1218.4640312198</ele>
        <time>2015-05-17T11:30:04Z</time>
      </trkpt>
      <trkpt lat="44.12367" lon="3.48969">
        <ele>1218.4640312198</ele>
        <time>2015-05-17T11:30:09Z</time>
      </trkpt>
      <trkpt lat="44.12366" lon="3.48971">
        <ele>1218.4640312198</ele>
        <time>2015-05-17T11:30:14Z</time>
      </trkpt>
      <trkpt lat="44.12375" lon="3.4899">
        <ele>1220.8543441014</ele>
        <time>2015-05-17T11:31:06Z</time>
      </trkpt>
      <trkpt lat="44.12379" lon="3.48989">
        <ele>1220.8543441014</ele>
        <time>2015-05-17T11:31:14Z</time>
      </trkpt>
      <trkpt lat="44.12396" lon="3.48986">
        <ele>1223.473547504</ele>
        <time>2015-05-17T11:31:31Z</time>
      </trkpt>
      <trkpt lat="44.12396" lon="3.49">
        <ele>1226.057683015</ele>
        <time>2015-05-17T11:31:32Z</time>
      </trkpt>
      <trkpt lat="44.12402" lon="3.49029">
        <ele>1229.2124946631</ele>
        <time>2015-05-17T11:31:59Z</time>
      </trkpt>
      <trkpt lat="44.12403" lon="3.49031">
        <ele>1229.2124946631</ele>
        <time>2015-05-17T11:32:02Z</time>
      </trkpt>
      <trkpt lat="44.12403" lon="3.49036">
        <ele>1229.2124946631</ele>
        <time>2015-05-17T11:32:07Z</time>
      </trkpt>
      <trkpt lat="44.12416" lon="3.49075">
        <ele>1232.7626307758</ele>
        <time>2015-05-17T11:32:49Z</time>
      </trkpt>
      <trkpt lat="44.12419" lon="3.49083">
        <ele>1232.7626307758</ele>
        <time>2015-05-17T11:32:59Z</time>
      </trkpt>
      <trkpt lat="44.12424" lon="3.49094">
        <ele>1236.9191847067</ele>
        <time>2015-05-17T11:32:59Z</time>
      </trkpt>
      <trkpt lat="44.12424" lon="3.49096">
        <ele>1236.9191847067</ele>
        <time>2015-05-17T11:33:07Z</time>
      </trkpt>
      <trkpt lat="44.12426" lon="3.49106">
        <ele>1236.9191847067</ele>
        <time>2015-05-17T11:33:29Z</time>
      </trkpt>
      <trkpt lat="44.1243" lon="3.4912">
        <ele>1241.6886978464</ele>
        <time>2015-05-17T11:35:31Z</time>
      </trkpt>
      <trkpt lat="44.12436" lon="3.49126">
        <ele>1241.6886978464</ele>
        <time>2015-05-17T11:35:47Z</time>
      </trkpt>
      <trkpt lat="44.1244" lon="3.49144">
        <ele>1246.2396860283</ele>
        <time>2015-05-17T11:36:22Z</time>
      </trkpt>
      <trkpt lat="44.12449" lon="3.49179">
        <ele>1250.3211970645</ele>
        <time>2015-05-17T11:36:51Z</time>
      </trkpt>
      <trkpt lat="44.12452" lon="3.49196">
        <ele>1254.0191314411</ele>
        <time>2015-05-17T11:37:01Z</time>
      </trkpt>
      <trkpt lat="44.12453" lon="3.49197">
        <ele>1254.0191314411</ele>
        <time>2015-05-17T11:37:10Z</time>
      </trkpt>
      <trkpt lat="44.12455" lon="3.49204">
        <ele>1254.0191314411</ele>
        <time>2015-05-17T11:37:19Z</time>
      </trkpt>
      <trkpt lat="44.12461" lon="3.49232">
        <ele>1257.3998153625</ele>
        <time>2015-05-17T11:37:31Z</time>
      </trkpt>
      <trkpt lat="44.12461" lon="3.49233">
        <ele>1257.3998153625</ele>
        <time>2015-05-17T11:37:32Z</time>
      </trkpt>
      <trkpt lat="44.12465" lon="3.49253">
        <ele>1260.6841967539</ele>
        <time>2015-05-17T11:38:00Z</time>
      </trkpt>
      <trkpt lat="44.12466" lon="3.49255">
        <ele>1260.6841967539</ele>
        <time>2015-05-17T11:38:02Z</time>
      </trkpt>
      <trkpt lat="44.12468" lon="3.49264">
        <ele>1260.6841967539</ele>
        <time>2015-05-17T11:38:10Z</time>
      </trkpt>
      <trkpt lat="44.12469" lon="3.49266">
        <ele>1263.6738404556</ele>
        <time>2015-05-17T11:38:12Z</time>
      </trkpt>
      <trkpt lat="44.12471" lon="3.49271">
        <ele>1263.6738404556</ele>
        <time>2015-05-17T11:38:17Z</time>
      </trkpt>
      <trkpt lat="44.12473" lon="3.49281">
        <ele>1266.3443299607</ele>
        <time>2015-05-17T11:38:33Z</time>
      </trkpt>
      <trkpt lat="44.12479" lon="3.49298">
        <ele>1268.8757873626</ele>
        <time>2015-05-17T11:38:45Z</time>
      </trkpt>
      <trkpt lat="44.12483" lon="3.49318">
        <ele>1271.2050083781</ele>
        <time>2015-05-17T11:39:00Z</time>
      </trkpt>
      <trkpt lat="44.12483" lon="3.49319">
        <ele>1271.2050083781</ele>
        <time>2015-05-17T11:39:07Z</time>
      </trkpt>
      <trkpt lat="44.12485" lon="3.4932">
        <ele>1271.2050083781</ele>
        <time>2015-05-17T11:39:22Z</time>
      </trkpt>
      <trkpt lat="44.12498" lon="3.49354">
        <ele>1273.8505346461</ele>
        <time>2015-05-17T11:40:09Z</time>
      </trkpt>
      <trkpt lat="44.12502" lon="3.4937">
        <ele>1276.5426387338</ele>
        <time>2015-05-17T11:40:22Z</time>
      </trkpt>
      <trkpt lat="44.12507" lon="3.49385">
        <ele>1279.1034171945</ele>
        <time>2015-05-17T11:40:52Z</time>
      </trkpt>
      <trkpt lat="44.12514" lon="3.49403">
        <ele>1281.5125968329</ele>
        <time>2015-05-17T11:41:02Z</time>
      </trkpt>
      <trkpt lat="44.12529" lon="3.4943">
        <ele>1283.9104202294</ele>
        <time>2015-05-17T11:41:31Z</time>
      </trkpt>
      <trkpt lat="44.12532" lon="3.49455">
        <ele>1286.3404684241</ele>
        <time>2015-05-17T11:41:47Z</time>
      </trkpt>
      <trkpt lat="44.12534" lon="3.49464">
        <ele>1286.3404684241</ele>
        <time>2015-05-17T11:41:59Z</time>
      </trkpt>
      <trkpt lat="44.12537" lon="3.49471">
        <ele>1288.6413462651</ele>
        <time>2015-05-17T11:42:04Z</time>
      </trkpt>
      <trkpt lat="44.1254" lon="3.4951">
        <ele>1290.9809884706</ele>
        <time>2015-05-17T11:42:30Z</time>
      </trkpt>
      <trkpt lat="44.1254" lon="3.49518">
        <ele>1290.9809884706</ele>
        <time>2015-05-17T11:43:04Z</time>
      </trkpt>
      <trkpt lat="44.12546" lon="3.49576">
        <ele>1294.0049263684</ele>
        <time>2015-05-17T11:44:02Z</time>
      </trkpt>
      <trkpt lat="44.12545" lon="3.49595">
        <ele>1296.7818339204</ele>
        <time>2015-05-17T11:45:04Z</time>
      </trkpt>
      <trkpt lat="44.1255" lon="3.49622">
        <ele>1299.3718631208</ele>
        <time>2015-05-17T11:46:05Z</time>
      </trkpt>
      <trkpt lat="44.1255" lon="3.49628">
        <ele>1299.3718631208</ele>
        <time>2015-05-17T11:46:11Z</time>
      </trkpt>
      <trkpt lat="44.12543" lon="3.49713">
        <ele>1302.0042624134</ele>
        <time>2015-05-17T11:47:02Z</time>
      </trkpt>
      <trkpt lat="44.12523" lon="3.49776">
        <ele>1305.0787224027</ele>
        <time>2015-05-17T11:48:01Z</time>
      </trkpt>
      <trkpt lat="44.12523" lon="3.49776">
        <ele>1305.0787224027</ele>
        <time>2015-05-17T11:48:04Z</time>
      </trkpt>
      <trkpt lat="44.12523" lon="3.49786">
        <ele>1305.0787224027</ele>
        <time>2015-05-17T11:48:14Z</time>
      </trkpt>
      <trkpt lat="44.12518" lon="3.49827">
        <ele>1308.6905784977</ele>
        <time>2015-05-17T11:48:38Z</time>
      </trkpt>
      <trkpt lat="44.12515" lon="3.49852">
        <ele>1312.5952587441</ele>
        <time>2015-05-17T11:49:02Z</time>
      </trkpt>
      <trkpt lat="44.12514" lon="3.49856">
        <ele>1312.5952587441</ele>
        <time>2015-05-17T11:49:08Z</time>
      </trkpt>
      <trkpt lat="44.12517" lon="3.49929">
        <ele>1317.530945702</ele>
        <time>2015-05-17T11:50:02Z</time>
      </trkpt>
      <trkpt lat="44.12522" lon="3.49963">
        <ele>1322.3197428377</ele>
        <time>2015-05-17T11:50:41Z</time>
      </trkpt>
      <trkpt lat="44.12529" lon="3.50004">
        <ele>1327.1101339974</ele>
        <time>2015-05-17T11:51:02Z</time>
      </trkpt>
      <trkpt lat="44.12521" lon="3.50091">
        <ele>1331.7803874624</ele>
        <time>2015-05-17T11:52:02Z</time>
      </trkpt>
      <trkpt lat="44.12523" lon="3.50181">
        <ele>1335.9875803523</ele>
        <time>2015-05-17T11:53:02Z</time>
      </trkpt>
      <trkpt lat="44.12521" lon="3.50189">
        <ele>1335.9875803523</ele>
        <time>2015-05-17T11:53:07Z</time>
      </trkpt>
      <trkpt lat="44.12518" lon="3.50217">
        <ele>1339.761261697</ele>
        <time>2015-05-17T11:53:38Z</time>
      </trkpt>
      <trkpt lat="44.12518" lon="3.50252">
        <ele>1343.0436787371</ele>
        <time>2015-05-17T11:54:02Z</time>
      </trkpt>
      <trkpt lat="44.1255" lon="3.50315">
        <ele>1345.7684076272</ele>
        <time>2015-05-17T11:55:02Z</time>
      </trkpt>
      <trkpt lat="44.12547" lon="3.50323">
        <ele>1345.7684076272</ele>
        <time>2015-05-17T11:55:16Z</time>
      </trkpt>
      <trkpt lat="44.12582" lon="3.50355">
        <ele>1346.9820923617</ele>
        <time>2015-05-17T11:56:02Z</time>
      </trkpt>
      <trkpt lat="44.12607" lon="3.50419">
        <ele>1346.4110148864</ele>
        <time>2015-05-17T11:56:57Z</time>
      </trkpt>
      <trkpt lat="44.12608" lon="3.50425">
        <ele>1346.4110148864</ele>
        <time>2015-05-17T11:57:02Z</time>
      </trkpt>
      <trkpt lat="44.12617" lon="3.50417">
        <ele>1344.8298372845</ele>
        <time>2015-05-17T11:57:22Z</time>
      </trkpt>
      <trkpt lat="44.12618" lon="3.50415">
        <ele>1344.8298372845</ele>
        <time>2015-05-17T11:57:27Z</time>
      </trkpt>
      <trkpt lat="44.12616" lon="3.50419">
        <ele>1344.8298372845</ele>
        <time>2015-05-17T11:57:42Z</time>
      </trkpt>
      <trkpt lat="44.1262" lon="3.50422">
        <ele>1342.570095036</ele>
        <time>2015-05-17T11:58:14Z</time>
      </trkpt>
      <trkpt lat="44.12622" lon="3.50436">
        <ele>1340.0994036916</ele>
        <time>2015-05-17T11:58:24Z</time>
      </trkpt>
      <trkpt lat="44.12622" lon="3.50439">
        <ele>1340.0994036916</ele>
        <time>2015-05-17T11:58:27Z</time>
      </trkpt>
      <trkpt lat="44.12626" lon="3.50441">
        <ele>1340.0994036916</ele>
        <time>2015-05-17T11:58:34Z</time>
      </trkpt>
      <trkpt lat="44.12624" lon="3.50447">
        <ele>1337.592187459</ele>
        <time>2015-05-17T11:58:47Z</time>
      </trkpt>
      <trkpt lat="44.12625" lon="3.50478">
        <ele>1335.2677315769</ele>
        <time>2015-05-17T11:58:59Z</time>
      </trkpt>
      <trkpt lat="44.12624" lon="3.5049">
        <ele>1335.2677315769</ele>
        <time>2015-05-17T11:59:02Z</time>
      </trkpt>
      <trkpt lat="44.12623" lon="3.50493">
        <ele>1333.0259555125</ele>
        <time>2015-05-17T11:59:12Z</time>
      </trkpt>
      <trkpt lat="44.12623" lon="3.50519">
        <ele>1331.1628535161</ele>
        <time>2015-05-17T11:59:34Z</time>
      </trkpt>
      <trkpt lat="44.1262" lon="3.50533">
        <ele>1329.5911611105</ele>
        <time>2015-05-17T11:59:37Z</time>
      </trkpt>
      <trkpt lat="44.12621" lon="3.50539">
        <ele>1329.5911611105</ele>
        <time>2015-05-17T11:59:53Z</time>
      </trkpt>
      <trkpt lat="44.12624" lon="3.50567">
        <ele>1328.4884073873</ele>
        <time>2015-05-17T12:00:06Z</time>
      </trkpt>
      <trkpt lat="44.12623" lon="3.50568">
        <ele>1328.4884073873</ele>
        <time>2015-05-17T12:00:07Z</time>
      </trkpt>
      <trkpt lat="44.12619" lon="3.50617">
        <ele>1328.1184244809</ele>
        <time>2015-05-17T12:00:55Z</time>
      </trkpt>
      <trkpt lat="44.12618" lon="3.50623">
        <ele>1328.1184244809</ele>
        <time>2015-05-17T12:00:58Z</time>
      </trkpt>
      <trkpt lat="44.12619" lon="3.50628">
        <ele>1328.1184244809</ele>
        <time>2015-05-17T12:01:08Z</time>
      </trkpt>
      <trkpt lat="44.12624" lon="3.50643">
        <ele>1327.8442983865</ele>
        <time>2015-05-17T12:01:33Z</time>
      </trkpt>
      <trkpt lat="44.12627" lon="3.50656">
        <ele>1327.7238939407</ele>
        <time>2015-05-17T12:02:01Z</time>
      </trkpt>
      <trkpt lat="44.12627" lon="3.5067">
        <ele>1327.5219271929</ele>
        <time>2015-05-17T12:02:07Z</time>
      </trkpt>
      <trkpt lat="44.12627" lon="3.50678">
        <ele>1327.5219271929</ele>
        <time>2015-05-17T12:02:13Z</time>
      </trkpt>
      <trkpt lat="44.12627" lon="3.50678">
        <ele>1327.5219271929</ele>
        <time>2015-05-17T12:02:17Z</time>
      </trkpt>
      <trkpt lat="44.12627" lon="3.50717">
        <ele>1327.6256475634</ele>
        <time>2015-05-17T12:02:51Z</time>
      </trkpt>
      <trkpt lat="44.12628" lon="3.50722">
        <ele>1327.6256475634</ele>
        <time>2015-05-17T12:02:52Z</time>
      </trkpt>
      <trkpt lat="44.12627" lon="3.50723">
        <ele>1327.6256475634</ele>
        <time>2015-05-17T12:03:01Z</time>
      </trkpt>
      <trkpt lat="44.12622" lon="3.50768">
        <ele>1328.8395001049</ele>
        <time>2015-05-17T12:03:55Z</time>
      </trkpt>
      <trkpt lat="44.12621" lon="3.50768">
        <ele>1328.8395001049</ele>
        <time>2015-05-17T12:04:01Z</time>
      </trkpt>
      <trkpt lat="44.1262" lon="3.50775">
        <ele>1328.8395001049</ele>
        <time>2015-05-17T12:04:02Z</time>
      </trkpt>
      <trkpt lat="44.12618" lon="3.50818">
        <ele>1330.8390605602</ele>
        <time>2015-05-17T12:04:36Z</time>
      </trkpt>
      <trkpt lat="44.12618" lon="3.5083">
        <ele>1330.8390605602</ele>
        <time>2015-05-17T12:04:57Z</time>
      </trkpt>
      <trkpt lat="44.12614" lon="3.50839">
        <ele>1332.8457374013</ele>
        <time>2015-05-17T12:04:57Z</time>
      </trkpt>
      <trkpt lat="44.1261" lon="3.50847">
        <ele>1332.8457374013</ele>
        <time>2015-05-17T12:05:03Z</time>
      </trkpt>
      <trkpt lat="44.1261" lon="3.5085">
        <ele>1332.8457374013</ele>
        <time>2015-05-17T12:05:15Z</time>
      </trkpt>
      <trkpt lat="44.12605" lon="3.50868">
        <ele>1335.08903408</ele>
        <time>2015-05-17T12:05:24Z</time>
      </trkpt>
      <trkpt lat="44.12603" lon="3.50874">
        <ele>1335.08903408</ele>
        <time>2015-05-17T12:05:32Z</time>
      </trkpt>
      <trkpt lat="44.12594" lon="3.50911">
        <ele>1337.4348684156</ele>
        <time>2015-05-17T12:06:01Z</time>
      </trkpt>
      <trkpt lat="44.12593" lon="3.50912">
        <ele>1337.4348684156</ele>
        <time>2015-05-17T12:06:02Z</time>
      </trkpt>
      <trkpt lat="44.12586" lon="3.5093">
        <ele>1339.8450098514</ele>
        <time>2015-05-17T12:06:15Z</time>
      </trkpt>
      <trkpt lat="44.12563" lon="3.50964">
        <ele>1342.3125198411</ele>
        <time>2015-05-17T12:06:56Z</time>
      </trkpt>
      <trkpt lat="44.12561" lon="3.50986">
        <ele>1344.6000907961</ele>
        <time>2015-05-17T12:07:02Z</time>
      </trkpt>
      <trkpt lat="44.12562" lon="3.50995">
        <ele>1344.6000907961</ele>
        <time>2015-05-17T12:07:13Z</time>
      </trkpt>
      <trkpt lat="44.12558" lon="3.51017">
        <ele>1346.8485077421</ele>
        <time>2015-05-17T12:07:35Z</time>
      </trkpt>
      <trkpt lat="44.12542" lon="3.5106">
        <ele>1349.2026285042</ele>
        <time>2015-05-17T12:07:55Z</time>
      </trkpt>
      <trkpt lat="44.12544" lon="3.51066">
        <ele>1349.2026285042</ele>
        <time>2015-05-17T12:08:03Z</time>
      </trkpt>
      <trkpt lat="44.12543" lon="3.51068">
        <ele>1349.2026285042</ele>
        <time>2015-05-17T12:08:11Z</time>
      </trkpt>
      <trkpt lat="44.12542" lon="3.51076">
        <ele>1351.4648264346</ele>
        <time>2015-05-17T12:08:19Z</time>
      </trkpt>
      <trkpt lat="44.12518" lon="3.51135">
        <ele>1354.4465414837</ele>
        <time>2015-05-17T12:09:01Z</time>
      </trkpt>
      <trkpt lat="44.12517" lon="3.51136">
        <ele>1354.4465414837</ele>
        <time>2015-05-17T12:09:02Z</time>
      </trkpt>
      <trkpt lat="44.12515" lon="3.51143">
        <ele>1354.4465414837</ele>
        <time>2015-05-17T12:09:19Z</time>
      </trkpt>
      <trkpt lat="44.1251" lon="3.51163">
        <ele>1357.5717041336</ele>
        <time>2015-05-17T12:09:39Z</time>
      </trkpt>
      <trkpt lat="44.12499" lon="3.51206">
        <ele>1361.2284283108</ele>
        <time>2015-05-17T12:10:02Z</time>
      </trkpt>
      <trkpt lat="44.12502" lon="3.51211">
        <ele>1361.2284283108</ele>
        <time>2015-05-17T12:10:16Z</time>
      </trkpt>
      <trkpt lat="44.12505" lon="3.51224">
        <ele>1364.9389563158</ele>
        <time>2015-05-17T12:10:20Z</time>
      </trkpt>
      <trkpt lat="44.12506" lon="3.51237">
        <ele>1368.3325246873</ele>
        <time>2015-05-17T12:10:33Z</time>
      </trkpt>
      <trkpt lat="44.12504" lon="3.51292">
        <ele>1371.9311747072</ele>
        <time>2015-05-17T12:10:56Z</time>
      </trkpt>
      <trkpt lat="44.12504" lon="3.51303">
        <ele>1371.9311747072</ele>
        <time>2015-05-17T12:11:03Z</time>
      </trkpt>
      <trkpt lat="44.12502" lon="3.51318">
        <ele>1375.5839646801</ele>
        <time>2015-05-17T12:11:12Z</time>
      </trkpt>
      <trkpt lat="44.12502" lon="3.5132">
        <ele>1375.5839646801</ele>
        <time>2015-05-17T12:11:12Z</time>
      </trkpt>
      <trkpt lat="44.12494" lon="3.51361">
        <ele>1379.7417923858</ele>
        <time>2015-05-17T12:11:53Z</time>
      </trkpt>
      <trkpt lat="44.12495" lon="3.51375">
        <ele>1383.6393680858</ele>
        <time>2015-05-17T12:11:53Z</time>
      </trkpt>
      <trkpt lat="44.12493" lon="3.5138">
        <ele>1383.6393680858</ele>
        <time>2015-05-17T12:12:01Z</time>
      </trkpt>
      <trkpt lat="44.12492" lon="3.51385">
        <ele>1383.6393680858</ele>
        <time>2015-05-17T12:12:02Z</time>
      </trkpt>
      <trkpt lat="44.1249" lon="3.51396">
        <ele>1387.4186847399</ele>
        <time>2015-05-17T12:12:15Z</time>
      </trkpt>
      <trkpt lat="44.12493" lon="3.51406">
        <ele>1387.4186847399</ele>
        <time>2015-05-17T12:12:25Z</time>
      </trkpt>
      <trkpt lat="44.12501" lon="3.51445">
        <ele>1390.8514512717</ele>
        <time>2015-05-17T12:12:42Z</time>
      </trkpt>
      <trkpt lat="44.12504" lon="3.51455">
        <ele>1390.8514512717</ele>
        <time>2015-05-17T12:13:17Z</time>
      </trkpt>
      <trkpt lat="44.12503" lon="3.51463">
        <ele>1393.4389999243</ele>
        <time>2015-05-17T12:13:22Z</time>
      </trkpt>
      <trkpt lat="44.12501" lon="3.51474">
        <ele>1393.4389999243</ele>
        <time>2015-05-17T12:13:27Z</time>
      </trkpt>
      <trkpt lat="44.125" lon="3.51479">
        <ele>1395.5720312604</ele>
        <time>2015-05-17T12:13:32Z</time>
      </trkpt>
      <trkpt lat="44.125" lon="3.51486">
        <ele>1395.5720312604</ele>
        <time>2015-05-17T12:13:39Z</time>
      </trkpt>
      <trkpt lat="44.125" lon="3.51496">
        <ele>1397.2248309515</ele>
        <time>2015-05-17T12:13:42Z</time>
      </trkpt>
      <trkpt lat="44.125" lon="3.51502">
        <ele>1397.2248309515</ele>
        <time>2015-05-17T12:13:50Z</time>
      </trkpt>
      <trkpt lat="44.12503" lon="3.51523">
        <ele>1398.5623727791</ele>
        <time>2015-05-17T12:14:03Z</time>
      </trkpt>
      <trkpt lat="44.12493" lon="3.51553">
        <ele>1399.6232071417</ele>
        <time>2015-05-17T12:14:31Z</time>
      </trkpt>
      <trkpt lat="44.12493" lon="3.51554">
        <ele>1399.6232071417</ele>
        <time>2015-05-17T12:14:32Z</time>
      </trkpt>
      <trkpt lat="44.12493" lon="3.51577">
        <ele>1400.5447966665</ele>
        <time>2015-05-17T12:14:53Z</time>
      </trkpt>
      <trkpt lat="44.12494" lon="3.51593">
        <ele>1401.2676303428</ele>
        <time>2015-05-17T12:15:03Z</time>
      </trkpt>
      <trkpt lat="44.12493" lon="3.51598">
        <ele>1401.2676303428</ele>
        <time>2015-05-17T12:15:09Z</time>
      </trkpt>
      <trkpt lat="44.12493" lon="3.516">
        <ele>1401.2676303428</ele>
        <time>2015-05-17T12:15:21Z</time>
      </trkpt>
      <trkpt lat="44.12472" lon="3.51671">
        <ele>1401.9245362159</ele>
        <time>2015-05-17T12:16:01Z</time>
      </trkpt>
      <trkpt lat="44.12472" lon="3.51672">
        <ele>1401.9245362159</ele>
        <time>2015-05-17T12:16:02Z</time>
      </trkpt>
      <trkpt lat="44.12469" lon="3.51675">
        <ele>1401.9245362159</ele>
        <time>2015-05-17T12:16:14Z</time>
      </trkpt>
      <trkpt lat="44.12422" lon="3.51709">
        <ele>1402.6532331539</ele>
        <time>2015-05-17T12:17:03Z</time>
      </trkpt>
      <trkpt lat="44.12419" lon="3.51712">
        <ele>1402.6532331539</ele>
        <time>2015-05-17T12:17:07Z</time>
      </trkpt>
      <trkpt lat="44.12415" lon="3.51715">
        <ele>1402.6532331539</ele>
        <time>2015-05-17T12:17:12Z</time>
      </trkpt>
      <trkpt lat="44.12411" lon="3.5172">
        <ele>1403.3073498848</ele>
        <time>2015-05-17T12:17:32Z</time>
      </trkpt>
      <trkpt lat="44.1239" lon="3.51731">
        <ele>1404.0685481838</ele>
        <time>2015-05-17T12:17:54Z</time>
      </trkpt>
      <trkpt lat="44.12385" lon="3.51738">
        <ele>1404.0685481838</ele>
        <time>2015-05-17T12:17:54Z</time>
      </trkpt>
      <trkpt lat="44.12384" lon="3.51749">
        <ele>1404.8310489584</ele>
        <time>2015-05-17T12:18:03Z</time>
      </trkpt>
      <trkpt lat="44.12352" lon="3.51809">
        <ele>1406.0444682522</ele>
        <time>2015-05-17T12:19:02Z</time>
      </trkpt>
      <trkpt lat="44.12351" lon="3.51817">
        <ele>1406.0444682522</ele>
        <time>2015-05-17T12:19:15Z</time>
      </trkpt>
      <trkpt lat="44.12351" lon="3.51827">
        <ele>1407.1585813286</ele>
        <time>2015-05-17T12:19:15Z</time>
      </trkpt>
      <trkpt lat="44.12337" lon="3.51872">
        <ele>1408.3699968569</ele>
        <time>2015-05-17T12:20:02Z</time>
      </trkpt>
      <trkpt lat="44.12337" lon="3.51879">
        <ele>1408.3699968569</ele>
        <time>2015-05-17T12:20:10Z</time>
      </trkpt>
      <trkpt lat="44.12338" lon="3.51921">
        <ele>1409.7885382377</ele>
        <time>2015-05-17T12:20:40Z</time>
      </trkpt>
      <trkpt lat="44.12338" lon="3.51941">
        <ele>1411.1262624254</ele>
        <time>2015-05-17T12:20:47Z</time>
      </trkpt>
      <trkpt lat="44.12336" lon="3.51947">
        <ele>1411.1262624254</ele>
        <time>2015-05-17T12:20:53Z</time>
      </trkpt>
      <trkpt lat="44.12333" lon="3.51953">
        <ele>1412.4048067559</ele>
        <time>2015-05-17T12:21:02Z</time>
      </trkpt>
      <trkpt lat="44.12331" lon="3.51958">
        <ele>1412.4048067559</ele>
        <time>2015-05-17T12:21:15Z</time>
      </trkpt>
      <trkpt lat="44.12346" lon="3.51979">
        <ele>1413.7164174541</ele>
        <time>2015-05-17T12:21:19Z</time>
      </trkpt>
      <trkpt lat="44.12352" lon="3.51984">
        <ele>1413.7164174541</ele>
        <time>2015-05-17T12:21:22Z</time>
      </trkpt>
      <trkpt lat="44.12357" lon="3.51991">
        <ele>1415.1032130135</ele>
        <time>2015-05-17T12:21:27Z</time>
      </trkpt>
      <trkpt lat="44.12359" lon="3.51999">
        <ele>1415.1032130135</ele>
        <time>2015-05-17T12:21:32Z</time>
      </trkpt>
      <trkpt lat="44.12361" lon="3.52005">
        <ele>1416.6616246619</ele>
        <time>2015-05-17T12:21:37Z</time>
      </trkpt>
      <trkpt lat="44.12362" lon="3.5201">
        <ele>1416.6616246619</ele>
        <time>2015-05-17T12:21:42Z</time>
      </trkpt>
      <trkpt lat="44.12363" lon="3.52017">
        <ele>1416.6616246619</ele>
        <time>2015-05-17T12:21:47Z</time>
      </trkpt>
      <trkpt lat="44.12364" lon="3.52024">
        <ele>1418.3219685075</ele>
        <time>2015-05-17T12:21:52Z</time>
      </trkpt>
      <trkpt lat="44.12362" lon="3.52031">
        <ele>1418.3219685075</ele>
        <time>2015-05-17T12:21:57Z</time>
      </trkpt>
      <trkpt lat="44.12362" lon="3.52038">
        <ele>1419.9905438325</ele>
        <time>2015-05-17T12:22:02Z</time>
      </trkpt>
      <trkpt lat="44.1236" lon="3.52043">
        <ele>1419.9905438325</ele>
        <time>2015-05-17T12:22:07Z</time>
      </trkpt>
      <trkpt lat="44.12357" lon="3.5205">
        <ele>1421.5948942364</ele>
        <time>2015-05-17T12:22:12Z</time>
      </trkpt>
      <trkpt lat="44.12353" lon="3.52056">
        <ele>1421.5948942364</ele>
        <time>2015-05-17T12:22:17Z</time>
      </trkpt>
      <trkpt lat="44.12351" lon="3.52061">
        <ele>1423.0392177456</ele>
        <time>2015-05-17T12:22:22Z</time>
      </trkpt>
      <trkpt lat="44.12349" lon="3.52062">
        <ele>1423.0392177456</ele>
        <time>2015-05-17T12:22:27Z</time>
      </trkpt>
      <trkpt lat="44.12349" lon="3.52062">
        <ele>1423.0392177456</ele>
        <time>2015-05-17T12:22:32Z</time>
      </trkpt>
      <trkpt lat="44.12331" lon="3.52083">
        <ele>1424.3936954978</ele>
        <time>2015-05-17T12:22:56Z</time>
      </trkpt>
      <trkpt lat="44.1233" lon="3.52083">
        <ele>1424.3936954978</ele>
        <time>2015-05-17T12:23:00Z</time>
      </trkpt>
      <trkpt lat="44.12325" lon="3.52088">
        <ele>1424.3936954978</ele>
        <time>2015-05-17T12:23:02Z</time>
      </trkpt>
      <trkpt lat="44.12301" lon="3.52112">
        <ele>1425.6515237456</ele>
        <time>2015-05-17T12:23:29Z</time>
      </trkpt>
      <trkpt lat="44.123" lon="3.52112">
        <ele>1425.6515237456</ele>
        <time>2015-05-17T12:23:29Z</time>
      </trkpt>
      <trkpt lat="44.12296" lon="3.52115">
        <ele>1425.6515237456</ele>
        <time>2015-05-17T12:23:35Z</time>
      </trkpt>
      <trkpt lat="44.12296" lon="3.52118">
        <ele>1425.6515237456</ele>
        <time>2015-05-17T12:23:39Z</time>
      </trkpt>
      <trkpt lat="44.12274" lon="3.52147">
        <ele>1426.8498761835</ele>
        <time>2015-05-17T12:24:02Z</time>
      </trkpt>
      <trkpt lat="44.12238" lon="3.52181">
        <ele>1428.0521565191</ele>
        <time>2015-05-17T12:24:49Z</time>
      </trkpt>
      <trkpt lat="44.1223" lon="3.52189">
        <ele>1429.1297250934</ele>
        <time>2015-05-17T12:24:59Z</time>
      </trkpt>
      <trkpt lat="44.12224" lon="3.52197">
        <ele>1429.1297250934</ele>
        <time>2015-05-17T12:25:03Z</time>
      </trkpt>
      <trkpt lat="44.12215" lon="3.52213">
        <ele>1430.2375208386</ele>
        <time>2015-05-17T12:25:21Z</time>
      </trkpt>
      <trkpt lat="44.12206" lon="3.52219">
        <ele>1431.2163481442</ele>
        <time>2015-05-17T12:25:21Z</time>
      </trkpt>
      <trkpt lat="44.12206" lon="3.52221">
        <ele>1431.2163481442</ele>
        <time>2015-05-17T12:25:26Z</time>
      </trkpt>
      <trkpt lat="44.12193" lon="3.52258">
        <ele>1432.1928418749</ele>
        <time>2015-05-17T12:25:53Z</time>
      </trkpt>
      <trkpt lat="44.12196" lon="3.52281">
        <ele>1433.0681345774</ele>
        <time>2015-05-17T12:26:02Z</time>
      </trkpt>
      <trkpt lat="44.12197" lon="3.52284">
        <ele>1433.0681345774</ele>
        <time>2015-05-17T12:26:02Z</time>
      </trkpt>
      <trkpt lat="44.12197" lon="3.52294">
        <ele>1433.8517408335</ele>
        <time>2015-05-17T12:26:07Z</time>
      </trkpt>
      <trkpt lat="44.12211" lon="3.52336">
        <ele>1434.7256216275</ele>
        <time>2015-05-17T12:26:34Z</time>
      </trkpt>
      <trkpt lat="44.12206" lon="3.52374">
        <ele>1435.613080959</ele>
        <time>2015-05-17T12:27:00Z</time>
      </trkpt>
      <trkpt lat="44.12205" lon="3.52385">
        <ele>1435.613080959</ele>
        <time>2015-05-17T12:27:03Z</time>
      </trkpt>
      <trkpt lat="44.12205" lon="3.52424">
        <ele>1436.5150238786</ele>
        <time>2015-05-17T12:27:32Z</time>
      </trkpt>
      <trkpt lat="44.12207" lon="3.52436">
        <ele>1436.5150238786</ele>
        <time>2015-05-17T12:27:32Z</time>
      </trkpt>
      <trkpt lat="44.12205" lon="3.52482">
        <ele>1437.6051295339</ele>
        <time>2015-05-17T12:28:02Z</time>
      </trkpt>
      <trkpt lat="44.12198" lon="3.52526">
        <ele>1438.7266931685</ele>
        <time>2015-05-17T12:28:33Z</time>
      </trkpt>
      <trkpt lat="44.1219" lon="3.52542">
        <ele>1439.7487908212</ele>
        <time>2015-05-17T12:28:47Z</time>
      </trkpt>
      <trkpt lat="44.12188" lon="3.52557">
        <ele>1440.6368082383</ele>
        <time>2015-05-17T12:28:50Z</time>
      </trkpt>
      <trkpt lat="44.12186" lon="3.52564">
        <ele>1440.6368082383</ele>
        <time>2015-05-17T12:28:58Z</time>
      </trkpt>
      <trkpt lat="44.12185" lon="3.52568">
        <ele>1440.6368082383</ele>
        <time>2015-05-17T12:28:58Z</time>
      </trkpt>
      <trkpt lat="44.12184" lon="3.52577">
        <ele>1441.5031075456</ele>
        <time>2015-05-17T12:29:03Z</time>
      </trkpt>
      <trkpt lat="44.12184" lon="3.52584">
        <ele>1441.5031075456</ele>
        <time>2015-05-17T12:29:12Z</time>
      </trkpt>
      <trkpt lat="44.12183" lon="3.52593">
        <ele>1442.2932813219</ele>
        <time>2015-05-17T12:29:12Z</time>
      </trkpt>
      <trkpt lat="44.12175" lon="3.52645">
        <ele>1443.2308889566</ele>
        <time>2015-05-17T12:29:55Z</time>
      </trkpt>
      <trkpt lat="44.12174" lon="3.52668">
        <ele>1444.162320539</ele>
        <time>2015-05-17T12:30:02Z</time>
      </trkpt>
      <trkpt lat="44.12173" lon="3.52681">
        <ele>1445.0028564126</ele>
        <time>2015-05-17T12:30:09Z</time>
      </trkpt>
      <trkpt lat="44.1217" lon="3.52684">
        <ele>1445.0028564126</ele>
        <time>2015-05-17T12:30:17Z</time>
      </trkpt>
      <trkpt lat="44.1217" lon="3.52692">
        <ele>1445.0028564126</ele>
        <time>2015-05-17T12:30:17Z</time>
      </trkpt>
      <trkpt lat="44.12154" lon="3.52759">
        <ele>1446.2794672606</ele>
        <time>2015-05-17T12:31:03Z</time>
      </trkpt>
      <trkpt lat="44.1215" lon="3.52766">
        <ele>1446.2794672606</ele>
        <time>2015-05-17T12:31:16Z</time>
      </trkpt>
      <trkpt lat="44.12143" lon="3.52829">
        <ele>1447.9026917535</ele>
        <time>2015-05-17T12:32:00Z</time>
      </trkpt>
      <trkpt lat="44.12141" lon="3.52838">
        <ele>1447.9026917535</ele>
        <time>2015-05-17T12:32:02Z</time>
      </trkpt>
      <trkpt lat="44.12138" lon="3.52843">
        <ele>1449.4283399483</ele>
        <time>2015-05-17T12:32:10Z</time>
      </trkpt>
      <trkpt lat="44.12133" lon="3.52846">
        <ele>1449.4283399483</ele>
        <time>2015-05-17T12:32:19Z</time>
      </trkpt>
      <trkpt lat="44.12114" lon="3.52867">
        <ele>1450.906235298</ele>
        <time>2015-05-17T12:32:44Z</time>
      </trkpt>
      <trkpt lat="44.12117" lon="3.52882">
        <ele>1452.3826341789</ele>
        <time>2015-05-17T12:33:02Z</time>
      </trkpt>
      <trkpt lat="44.12119" lon="3.52895">
        <ele>1453.5977291431</ele>
        <time>2015-05-17T12:34:22Z</time>
      </trkpt>
      <trkpt lat="44.12119" lon="3.52895">
        <ele>1453.5977291431</ele>
        <time>2015-05-17T12:34:27Z</time>
      </trkpt>
      <trkpt lat="44.12115" lon="3.52898">
        <ele>1453.5977291431</ele>
        <time>2015-05-17T12:34:52Z</time>
      </trkpt>
      <trkpt lat="44.12123" lon="3.52893">
        <ele>1454.6429534831</ele>
        <time>2015-05-17T12:36:03Z</time>
      </trkpt>
      <trkpt lat="44.12112" lon="3.52891">
        <ele>1455.5314135969</ele>
        <time>2015-05-17T12:37:02Z</time>
      </trkpt>
      <trkpt lat="44.12112" lon="3.52876">
        <ele>1456.8809302749</ele>
        <time>2015-05-17T12:42:03Z</time>
      </trkpt>
      <trkpt lat="44.1211" lon="3.5289">
        <ele>1458.0520838413</ele>
        <time>2015-05-17T12:44:02Z</time>
      </trkpt>
      <trkpt lat="44.12106" lon="3.52877">
        <ele>1458.6690647973</ele>
        <time>2015-05-17T12:59:00Z</time>
      </trkpt>
      <trkpt lat="44.12116" lon="3.52882">
        <ele>1459.1201631952</ele>
        <time>2015-05-17T13:00:02Z</time>
      </trkpt>
      <trkpt lat="44.12106" lon="3.52892">
        <ele>1458.9873793972</ele>
        <time>2015-05-17T13:01:02Z</time>
      </trkpt>
      <trkpt lat="44.12103" lon="3.52893">
        <ele>1458.9873793972</ele>
        <time>2015-05-17T13:01:07Z</time>
      </trkpt>
      <trkpt lat="44.12103" lon="3.52892">
        <ele>1458.9873793972</ele>
        <time>2015-05-17T13:01:12Z</time>
      </trkpt>
      <trkpt lat="44.12113" lon="3.52902">
        <ele>1458.8793890329</ele>
        <time>2015-05-17T13:01:37Z</time>
      </trkpt>
      <trkpt lat="44.12115" lon="3.52908">
        <ele>1458.8793890329</ele>
        <time>2015-05-17T13:01:42Z</time>
      </trkpt>
      <trkpt lat="44.12115" lon="3.52916">
        <ele>1458.6971316144</ele>
        <time>2015-05-17T13:01:47Z</time>
      </trkpt>
      <trkpt lat="44.12117" lon="3.52924">
        <ele>1458.6971316144</ele>
        <time>2015-05-17T13:01:52Z</time>
      </trkpt>
      <trkpt lat="44.12116" lon="3.52928">
        <ele>1458.6971316144</ele>
        <time>2015-05-17T13:01:57Z</time>
      </trkpt>
      <trkpt lat="44.12116" lon="3.52932">
        <ele>1458.5219157785</ele>
        <time>2015-05-17T13:02:02Z</time>
      </trkpt>
      <trkpt lat="44.12116" lon="3.52934">
        <ele>1458.5219157785</ele>
        <time>2015-05-17T13:02:07Z</time>
      </trkpt>
      <trkpt lat="44.12119" lon="3.52946">
        <ele>1458.3425337983</ele>
        <time>2015-05-17T13:02:12Z</time>
      </trkpt>
      <trkpt lat="44.12116" lon="3.52979">
        <ele>1458.0764933412</ele>
        <time>2015-05-17T13:02:44Z</time>
      </trkpt>
      <trkpt lat="44.12105" lon="3.53009">
        <ele>1457.7484122195</ele>
        <time>2015-05-17T13:03:04Z</time>
      </trkpt>
      <trkpt lat="44.12105" lon="3.53014">
        <ele>1457.7484122195</ele>
        <time>2015-05-17T13:03:07Z</time>
      </trkpt>
      <trkpt lat="44.12105" lon="3.53022">
        <ele>1457.4100193479</ele>
        <time>2015-05-17T13:03:12Z</time>
      </trkpt>
      <trkpt lat="44.12117" lon="3.53121">
        <ele>1457.123601266</ele>
        <time>2015-05-17T13:04:02Z</time>
      </trkpt>
      <trkpt lat="44.12111" lon="3.53206">
        <ele>1457.0763360085</ele>
        <time>2015-05-17T13:04:58Z</time>
      </trkpt>
      <trkpt lat="44.12109" lon="3.53223">
        <ele>1457.0662007189</ele>
        <time>2015-05-17T13:05:02Z</time>
      </trkpt>
      <trkpt lat="44.12096" lon="3.53332">
        <ele>1457.2084490335</ele>
        <time>2015-05-17T13:06:02Z</time>
      </trkpt>
      <trkpt lat="44.12093" lon="3.53378">
        <ele>1457.4508242434</ele>
        <time>2015-05-17T13:06:54Z</time>
      </trkpt>
      <trkpt lat="44.12099" lon="3.53439">
        <ele>1457.8886452462</ele>
        <time>2015-05-17T13:07:03Z</time>
      </trkpt>
      <trkpt lat="44.12115" lon="3.53551">
        <ele>1458.3213665693</ele>
        <time>2015-05-17T13:08:03Z</time>
      </trkpt>
      <trkpt lat="44.12109" lon="3.53568">
        <ele>1458.6207442354</ele>
        <time>2015-05-17T13:08:17Z</time>
      </trkpt>
      <trkpt lat="44.12108" lon="3.53571">
        <ele>1458.6207442354</ele>
        <time>2015-05-17T13:08:17Z</time>
      </trkpt>
      <trkpt lat="44.12098" lon="3.536">
        <ele>1458.7114756916</ele>
        <time>2015-05-17T13:08:35Z</time>
      </trkpt>
      <trkpt lat="44.12095" lon="3.53604">
        <ele>1458.7114756916</ele>
        <time>2015-05-17T13:08:42Z</time>
      </trkpt>
      <trkpt lat="44.12089" lon="3.53623">
        <ele>1458.62516845</ele>
        <time>2015-05-17T13:08:59Z</time>
      </trkpt>
      <trkpt lat="44.1208" lon="3.53644">
        <ele>1458.3771097949</ele>
        <time>2015-05-17T13:09:03Z</time>
      </trkpt>
      <trkpt lat="44.1207" lon="3.53691">
        <ele>1458.0250669265</ele>
        <time>2015-05-17T13:09:34Z</time>
      </trkpt>
      <trkpt lat="44.12068" lon="3.53734">
        <ele>1457.608358637</ele>
        <time>2015-05-17T13:10:00Z</time>
      </trkpt>
      <trkpt lat="44.12057" lon="3.53778">
        <ele>1457.293209798</ele>
        <time>2015-05-17T13:10:28Z</time>
      </trkpt>
      <trkpt lat="44.12051" lon="3.5381">
        <ele>1457.0603276722</ele>
        <time>2015-05-17T13:10:47Z</time>
      </trkpt>
      <trkpt lat="44.12045" lon="3.53841">
        <ele>1456.848283083</ele>
        <time>2015-05-17T13:11:03Z</time>
      </trkpt>
      <trkpt lat="44.12031" lon="3.53879">
        <ele>1456.7297112646</ele>
        <time>2015-05-17T13:11:28Z</time>
      </trkpt>
      <trkpt lat="44.12033" lon="3.53919">
        <ele>1456.3392263472</ele>
        <time>2015-05-17T13:11:49Z</time>
      </trkpt>
      <trkpt lat="44.12028" lon="3.53952">
        <ele>1455.8577570199</ele>
        <time>2015-05-17T13:12:07Z</time>
      </trkpt>
      <trkpt lat="44.12027" lon="3.53976">
        <ele>1455.2801732275</ele>
        <time>2015-05-17T13:12:25Z</time>
      </trkpt>
      <trkpt lat="44.12014" lon="3.54057">
        <ele>1453.9101661058</ele>
        <time>2015-05-17T13:13:03Z</time>
      </trkpt>
      <trkpt lat="44.12014" lon="3.54061">
        <ele>1453.9101661058</ele>
        <time>2015-05-17T13:13:03Z</time>
      </trkpt>
      <trkpt lat="44.11995" lon="3.541">
        <ele>1452.0846602599</ele>
        <time>2015-05-17T13:13:32Z</time>
      </trkpt>
      <trkpt lat="44.11981" lon="3.5412">
        <ele>1449.872016139</ele>
        <time>2015-05-17T13:13:53Z</time>
      </trkpt>
      <trkpt lat="44.11981" lon="3.5412">
        <ele>1449.872016139</ele>
        <time>2015-05-17T13:14:04Z</time>
      </trkpt>
      <trkpt lat="44.11954" lon="3.54143">
        <ele>1447.4806575186</ele>
        <time>2015-05-17T13:14:33Z</time>
      </trkpt>
      <trkpt lat="44.11919" lon="3.54168">
        <ele>1445.1184864217</ele>
        <time>2015-05-17T13:15:03Z</time>
      </trkpt>
      <trkpt lat="44.11915" lon="3.54171">
        <ele>1445.1184864217</ele>
        <time>2015-05-17T13:15:07Z</time>
      </trkpt>
      <trkpt lat="44.11911" lon="3.54176">
        <ele>1442.8049819396</ele>
        <time>2015-05-17T13:15:13Z</time>
      </trkpt>
      <trkpt lat="44.1189" lon="3.54198">
        <ele>1440.5579093266</ele>
        <time>2015-05-17T13:15:33Z</time>
      </trkpt>
      <trkpt lat="44.11865" lon="3.5423">
        <ele>1438.1916304166</ele>
        <time>2015-05-17T13:16:03Z</time>
      </trkpt>
      <trkpt lat="44.11842" lon="3.54432">
        <ele>1434.5543551176</ele>
        <time>2015-05-17T13:18:07Z</time>
      </trkpt>
      <trkpt lat="44.11841" lon="3.54457">
        <ele>1431.161880426</ele>
        <time>2015-05-17T13:18:47Z</time>
      </trkpt>
      <trkpt lat="44.11849" lon="3.54523">
        <ele>1427.9046099665</ele>
        <time>2015-05-17T13:19:04Z</time>
      </trkpt>
      <trkpt lat="44.1185" lon="3.54525">
        <ele>1427.9046099665</ele>
        <time>2015-05-17T13:19:14Z</time>
      </trkpt>
      <trkpt lat="44.11857" lon="3.54622">
        <ele>1425.2280403373</ele>
        <time>2015-05-17T13:20:04Z</time>
      </trkpt>
      <trkpt lat="44.11855" lon="3.54631">
        <ele>1425.2280403373</ele>
        <time>2015-05-17T13:20:09Z</time>
      </trkpt>
      <trkpt lat="44.1184" lon="3.54662">
        <ele>1422.6496131171</ele>
        <time>2015-05-17T13:20:55Z</time>
      </trkpt>
      <trkpt lat="44.11808" lon="3.54711">
        <ele>1420.3558153573</ele>
        <time>2015-05-17T13:21:04Z</time>
      </trkpt>
      <trkpt lat="44.11807" lon="3.54716">
        <ele>1420.3558153573</ele>
        <time>2015-05-17T13:21:07Z</time>
      </trkpt>
      <trkpt lat="44.11803" lon="3.54719">
        <ele>1420.3558153573</ele>
        <time>2015-05-17T13:21:21Z</time>
      </trkpt>
      <trkpt lat="44.11757" lon="3.54781">
        <ele>1418.4031283396</ele>
        <time>2015-05-17T13:22:04Z</time>
      </trkpt>
      <trkpt lat="44.11756" lon="3.54783">
        <ele>1418.4031283396</ele>
        <time>2015-05-17T13:22:10Z</time>
      </trkpt>
      <trkpt lat="44.11727" lon="3.54885">
        <ele>1416.511253163</ele>
        <time>2015-05-17T13:23:04Z</time>
      </trkpt>
      <trkpt lat="44.11725" lon="3.54895">
        <ele>1416.511253163</ele>
        <time>2015-05-17T13:23:09Z</time>
      </trkpt>
      <trkpt lat="44.11725" lon="3.54926">
        <ele>1415.1262407523</ele>
        <time>2015-05-17T13:23:30Z</time>
      </trkpt>
      <trkpt lat="44.11725" lon="3.54928">
        <ele>1415.1262407523</ele>
        <time>2015-05-17T13:23:35Z</time>
      </trkpt>
      <trkpt lat="44.11728" lon="3.54989">
        <ele>1413.838310987</ele>
        <time>2015-05-17T13:24:06Z</time>
      </trkpt>
      <trkpt lat="44.11727" lon="3.54991">
        <ele>1413.838310987</ele>
        <time>2015-05-17T13:24:07Z</time>
      </trkpt>
      <trkpt lat="44.11694" lon="3.5508">
        <ele>1411.7340999743</ele>
        <time>2015-05-17T13:25:03Z</time>
      </trkpt>
      <trkpt lat="44.11689" lon="3.55095">
        <ele>1409.8284678323</ele>
        <time>2015-05-17T13:25:11Z</time>
      </trkpt>
      <trkpt lat="44.11665" lon="3.55121">
        <ele>1407.9080888075</ele>
        <time>2015-05-17T13:26:04Z</time>
      </trkpt>
      <trkpt lat="44.11662" lon="3.55082">
        <ele>1404.8960864827</ele>
        <time>2015-05-17T13:26:09Z</time>
      </trkpt>
      <trkpt lat="44.11661" lon="3.55078">
        <ele>1404.8960864827</ele>
        <time>2015-05-17T13:26:17Z</time>
      </trkpt>
      <trkpt lat="44.1164" lon="3.54978">
        <ele>1400.7775245855</ele>
        <time>2015-05-17T13:27:05Z</time>
      </trkpt>
      <trkpt lat="44.11639" lon="3.54974">
        <ele>1400.7775245855</ele>
        <time>2015-05-17T13:27:07Z</time>
      </trkpt>
      <trkpt lat="44.1159" lon="3.54897">
        <ele>1395.8297013072</ele>
        <time>2015-05-17T13:28:13Z</time>
      </trkpt>
      <trkpt lat="44.11555" lon="3.54821">
        <ele>1390.5278386755</ele>
        <time>2015-05-17T13:29:00Z</time>
      </trkpt>
      <trkpt lat="44.11542" lon="3.54815">
        <ele>1385.6300742753</ele>
        <time>2015-05-17T13:29:05Z</time>
      </trkpt>
      <trkpt lat="44.11539" lon="3.54812">
        <ele>1385.6300742753</ele>
        <time>2015-05-17T13:29:09Z</time>
      </trkpt>
      <trkpt lat="44.11538" lon="3.54809">
        <ele>1385.6300742753</ele>
        <time>2015-05-17T13:29:17Z</time>
      </trkpt>
      <trkpt lat="44.11486" lon="3.54744">
        <ele>1381.549270908</ele>
        <time>2015-05-17T13:30:05Z</time>
      </trkpt>
      <trkpt lat="44.11483" lon="3.54744">
        <ele>1381.549270908</ele>
        <time>2015-05-17T13:30:07Z</time>
      </trkpt>
      <trkpt lat="44.11473" lon="3.54715">
        <ele>1378.1754556728</ele>
        <time>2015-05-17T13:31:05Z</time>
      </trkpt>
      <trkpt lat="44.11469" lon="3.5469">
        <ele>1375.8368426682</ele>
        <time>2015-05-17T13:31:27Z</time>
      </trkpt>
      <trkpt lat="44.11454" lon="3.5464">
        <ele>1374.1426589361</ele>
        <time>2015-05-17T13:32:05Z</time>
      </trkpt>
      <trkpt lat="44.11453" lon="3.54635">
        <ele>1374.1426589361</ele>
        <time>2015-05-17T13:32:07Z</time>
      </trkpt>
      <trkpt lat="44.11452" lon="3.54624">
        <ele>1372.8729113334</ele>
        <time>2015-05-17T13:32:28Z</time>
      </trkpt>
      <trkpt lat="44.11425" lon="3.5457">
        <ele>1372.3555741448</ele>
        <time>2015-05-17T13:32:57Z</time>
      </trkpt>
      <trkpt lat="44.11412" lon="3.54567">
        <ele>1372.2004910931</ele>
        <time>2015-05-17T13:33:06Z</time>
      </trkpt>
      <trkpt lat="44.1141" lon="3.54568">
        <ele>1372.2004910931</ele>
        <time>2015-05-17T13:33:07Z</time>
      </trkpt>
      <trkpt lat="44.11377" lon="3.54559">
        <ele>1372.7943594029</ele>
        <time>2015-05-17T13:33:30Z</time>
      </trkpt>
      <trkpt lat="44.11377" lon="3.54559">
        <ele>1372.7943594029</ele>
        <time>2015-05-17T13:33:38Z</time>
      </trkpt>
      <trkpt lat="44.11371" lon="3.54553">
        <ele>1372.7943594029</ele>
        <time>2015-05-17T13:33:38Z</time>
      </trkpt>
      <trkpt lat="44.11341" lon="3.54527">
        <ele>1373.8303160557</ele>
        <time>2015-05-17T13:34:05Z</time>
      </trkpt>
      <trkpt lat="44.11314" lon="3.54525">
        <ele>1375.0947443886</ele>
        <time>2015-05-17T13:34:28Z</time>
      </trkpt>
      <trkpt lat="44.11282" lon="3.54544">
        <ele>1376.5042886395</ele>
        <time>2015-05-17T13:34:58Z</time>
      </trkpt>
      <trkpt lat="44.11263" lon="3.54533">
        <ele>1378.1109624968</ele>
        <time>2015-05-17T13:35:05Z</time>
      </trkpt>
      <trkpt lat="44.11262" lon="3.54532">
        <ele>1378.1109624968</ele>
        <time>2015-05-17T13:35:14Z</time>
      </trkpt>
      <trkpt lat="44.11239" lon="3.5453">
        <ele>1380.1209137279</ele>
        <time>2015-05-17T13:35:37Z</time>
      </trkpt>
      <trkpt lat="44.11208" lon="3.54525">
        <ele>1382.4790441966</ele>
        <time>2015-05-17T13:35:59Z</time>
      </trkpt>
      <trkpt lat="44.11196" lon="3.54529">
        <ele>1384.9460316227</ele>
        <time>2015-05-17T13:36:05Z</time>
      </trkpt>
      <trkpt lat="44.11194" lon="3.5453">
        <ele>1384.9460316227</ele>
        <time>2015-05-17T13:36:07Z</time>
      </trkpt>
      <trkpt lat="44.11163" lon="3.54516">
        <ele>1387.6025433623</ele>
        <time>2015-05-17T13:36:30Z</time>
      </trkpt>
      <trkpt lat="44.11158" lon="3.54513">
        <ele>1387.6025433623</ele>
        <time>2015-05-17T13:36:43Z</time>
      </trkpt>
      <trkpt lat="44.11113" lon="3.54506">
        <ele>1390.8255353707</ele>
        <time>2015-05-17T13:37:04Z</time>
      </trkpt>
      <trkpt lat="44.1111" lon="3.54508">
        <ele>1390.8255353707</ele>
        <time>2015-05-17T13:37:08Z</time>
      </trkpt>
      <trkpt lat="44.11061" lon="3.54476">
        <ele>1394.6746054546</ele>
        <time>2015-05-17T13:37:51Z</time>
      </trkpt>
      <trkpt lat="44.1106" lon="3.54477">
        <ele>1394.6746054546</ele>
        <time>2015-05-17T13:37:53Z</time>
      </trkpt>
      <trkpt lat="44.11045" lon="3.54475">
        <ele>1398.5116591107</ele>
        <time>2015-05-17T13:38:05Z</time>
      </trkpt>
      <trkpt lat="44.11029" lon="3.54439">
        <ele>1402.5095057838</ele>
        <time>2015-05-17T13:38:28Z</time>
      </trkpt>
      <trkpt lat="44.10991" lon="3.54384">
        <ele>1406.4245355229</ele>
        <time>2015-05-17T13:39:05Z</time>
      </trkpt>
      <trkpt lat="44.10991" lon="3.54382">
        <ele>1406.4245355229</ele>
        <time>2015-05-17T13:39:07Z</time>
      </trkpt>
      <trkpt lat="44.1096" lon="3.54335">
        <ele>1409.5559637782</ele>
        <time>2015-05-17T13:39:52Z</time>
      </trkpt>
      <trkpt lat="44.10957" lon="3.54331">
        <ele>1409.5559637782</ele>
        <time>2015-05-17T13:39:53Z</time>
      </trkpt>
      <trkpt lat="44.10945" lon="3.54333">
        <ele>1412.4675046304</ele>
        <time>2015-05-17T13:40:05Z</time>
      </trkpt>
      <trkpt lat="44.10931" lon="3.54357">
        <ele>1413.4198359866</ele>
        <time>2015-05-17T13:41:09Z</time>
      </trkpt>
      <trkpt lat="44.10946" lon="3.54376">
        <ele>1413.7903122291</ele>
        <time>2015-05-17T13:42:06Z</time>
      </trkpt>
      <trkpt lat="44.10939" lon="3.54367">
        <ele>1413.5600478117</ele>
        <time>2015-05-17T13:42:07Z</time>
      </trkpt>
      <trkpt lat="44.10941" lon="3.54369">
        <ele>1413.5600478117</ele>
        <time>2015-05-17T13:42:15Z</time>
      </trkpt>
      <trkpt lat="44.1094" lon="3.54367">
        <ele>1413.5600478117</ele>
        <time>2015-05-17T13:42:17Z</time>
      </trkpt>
      <trkpt lat="44.10942" lon="3.54365">
        <ele>1413.5600478117</ele>
        <time>2015-05-17T13:42:24Z</time>
      </trkpt>
      <trkpt lat="44.10941" lon="3.54363">
        <ele>1413.5600478117</ele>
        <time>2015-05-17T13:42:30Z</time>
      </trkpt>
      <trkpt lat="44.10942" lon="3.54365">
        <ele>1412.9585173748</ele>
        <time>2015-05-17T13:42:32Z</time>
      </trkpt>
      <trkpt lat="44.1094" lon="3.54378">
        <ele>1411.9114404589</ele>
        <time>2015-05-17T13:43:05Z</time>
      </trkpt>
      <trkpt lat="44.10894" lon="3.54335">
        <ele>1410.5532621474</ele>
        <time>2015-05-17T13:44:05Z</time>
      </trkpt>
      <trkpt lat="44.10892" lon="3.54336">
        <ele>1410.5532621474</ele>
        <time>2015-05-17T13:44:14Z</time>
      </trkpt>
      <trkpt lat="44.10849" lon="3.54302">
        <ele>1409.2834772078</ele>
        <time>2015-05-17T13:45:00Z</time>
      </trkpt>
      <trkpt lat="44.10841" lon="3.54299">
        <ele>1409.2834772078</ele>
        <time>2015-05-17T13:45:05Z</time>
      </trkpt>
      <trkpt lat="44.10839" lon="3.54297">
        <ele>1408.1263387356</ele>
        <time>2015-05-17T13:45:07Z</time>
      </trkpt>
      <trkpt lat="44.10833" lon="3.5429">
        <ele>1408.1263387356</ele>
        <time>2015-05-17T13:45:12Z</time>
      </trkpt>
      <trkpt lat="44.10828" lon="3.54286">
        <ele>1407.0753777944</ele>
        <time>2015-05-17T13:45:21Z</time>
      </trkpt>
      <trkpt lat="44.10775" lon="3.54244">
        <ele>1406.2109469228</ele>
        <time>2015-05-17T13:46:05Z</time>
      </trkpt>
      <trkpt lat="44.10775" lon="3.54243">
        <ele>1406.2109469228</ele>
        <time>2015-05-17T13:46:15Z</time>
      </trkpt>
      <trkpt lat="44.10706" lon="3.54204">
        <ele>1404.6559967026</ele>
        <time>2015-05-17T13:47:07Z</time>
      </trkpt>
      <trkpt lat="44.10701" lon="3.54201">
        <ele>1404.6559967026</ele>
        <time>2015-05-17T13:47:12Z</time>
      </trkpt>
      <trkpt lat="44.10637" lon="3.54186">
        <ele>1403.0699149557</ele>
        <time>2015-05-17T13:48:05Z</time>
      </trkpt>
      <trkpt lat="44.10631" lon="3.54191">
        <ele>1403.0699149557</ele>
        <time>2015-05-17T13:48:07Z</time>
      </trkpt>
      <trkpt lat="44.10629" lon="3.5419">
        <ele>1403.0699149557</ele>
        <time>2015-05-17T13:48:12Z</time>
      </trkpt>
      <trkpt lat="44.10626" lon="3.5419">
        <ele>1400.3489335504</ele>
        <time>2015-05-17T13:48:17Z</time>
      </trkpt>
      <trkpt lat="44.10628" lon="3.54198">
        <ele>1400.3489335504</ele>
        <time>2015-05-17T13:48:22Z</time>
      </trkpt>
      <trkpt lat="44.10627" lon="3.54207">
        <ele>1397.1597455757</ele>
        <time>2015-05-17T13:48:27Z</time>
      </trkpt>
      <trkpt lat="44.10627" lon="3.54213">
        <ele>1397.1597455757</ele>
        <time>2015-05-17T13:48:32Z</time>
      </trkpt>
      <trkpt lat="44.1062" lon="3.54211">
        <ele>1393.833229176</ele>
        <time>2015-05-17T13:48:37Z</time>
      </trkpt>
      <trkpt lat="44.10614" lon="3.54211">
        <ele>1393.833229176</ele>
        <time>2015-05-17T13:48:42Z</time>
      </trkpt>
      <trkpt lat="44.10608" lon="3.54211">
        <ele>1390.5755051837</ele>
        <time>2015-05-17T13:48:47Z</time>
      </trkpt>
      <trkpt lat="44.10602" lon="3.54207">
        <ele>1390.5755051837</ele>
        <time>2015-05-17T13:48:52Z</time>
      </trkpt>
      <trkpt lat="44.10597" lon="3.54205">
        <ele>1387.3900287758</ele>
        <time>2015-05-17T13:48:57Z</time>
      </trkpt>
      <trkpt lat="44.10596" lon="3.54205">
        <ele>1387.3900287758</ele>
        <time>2015-05-17T13:49:02Z</time>
      </trkpt>
      <trkpt lat="44.10585" lon="3.54207">
        <ele>1383.9483292797</ele>
        <time>2015-05-17T13:49:07Z</time>
      </trkpt>
      <trkpt lat="44.1058" lon="3.54206">
        <ele>1383.9483292797</ele>
        <time>2015-05-17T13:49:12Z</time>
      </trkpt>
      <trkpt lat="44.10575" lon="3.54206">
        <ele>1380.2637893593</ele>
        <time>2015-05-17T13:49:17Z</time>
      </trkpt>
      <trkpt lat="44.1057" lon="3.54205">
        <ele>1380.2637893593</ele>
        <time>2015-05-17T13:49:22Z</time>
      </trkpt>
      <trkpt lat="44.10565" lon="3.54202">
        <ele>1376.5223597195</ele>
        <time>2015-05-17T13:49:28Z</time>
      </trkpt>
      <trkpt lat="44.10557" lon="3.542">
        <ele>1376.5223597195</ele>
        <time>2015-05-17T13:49:43Z</time>
      </trkpt>
      <trkpt lat="44.10549" lon="3.54196">
        <ele>1373.0405157409</ele>
        <time>2015-05-17T13:49:52Z</time>
      </trkpt>
      <trkpt lat="44.1054" lon="3.54195">
        <ele>1373.0405157409</ele>
        <time>2015-05-17T13:49:57Z</time>
      </trkpt>
      <trkpt lat="44.10538" lon="3.54195">
        <ele>1368.3380794261</ele>
        <time>2015-05-17T13:50:02Z</time>
      </trkpt>
      <trkpt lat="44.10538" lon="3.54196">
        <ele>1368.3380794261</ele>
        <time>2015-05-17T13:50:07Z</time>
      </trkpt>
      <trkpt lat="44.1054" lon="3.54199">
        <ele>1368.3380794261</ele>
        <time>2015-05-17T13:50:17Z</time>
      </trkpt>
      <trkpt lat="44.10541" lon="3.54198">
        <ele>1368.3380794261</ele>
        <time>2015-05-17T13:50:22Z</time>
      </trkpt>
      <trkpt lat="44.10536" lon="3.54193">
        <ele>1363.9002988501</ele>
        <time>2015-05-17T13:50:33Z</time>
      </trkpt>
      <trkpt lat="44.10531" lon="3.54194">
        <ele>1363.9002988501</ele>
        <time>2015-05-17T13:50:57Z</time>
      </trkpt>
      <trkpt lat="44.10529" lon="3.54195">
        <ele>1363.9002988501</ele>
        <time>2015-05-17T13:51:02Z</time>
      </trkpt>
      <trkpt lat="44.10528" lon="3.54194">
        <ele>1363.9002988501</ele>
        <time>2015-05-17T13:51:07Z</time>
      </trkpt>
      <trkpt lat="44.10524" lon="3.54198">
        <ele>1359.2001521567</ele>
        <time>2015-05-17T13:51:12Z</time>
      </trkpt>
      <trkpt lat="44.10524" lon="3.54198">
        <ele>1359.2001521567</ele>
        <time>2015-05-17T13:51:17Z</time>
      </trkpt>
      <trkpt lat="44.10522" lon="3.54185">
        <ele>1355.2486488102</ele>
        <time>2015-05-17T13:51:37Z</time>
      </trkpt>
      <trkpt lat="44.10517" lon="3.54196">
        <ele>1351.4382457329</ele>
        <time>2015-05-17T13:53:37Z</time>
      </trkpt>
      <trkpt lat="44.10522" lon="3.54209">
        <ele>1348.2142026544</ele>
        <time>2015-05-17T13:54:52Z</time>
      </trkpt>
      <trkpt lat="44.10521" lon="3.54196">
        <ele>1345.0937169351</ele>
        <time>2015-05-17T13:55:33Z</time>
      </trkpt>
      <trkpt lat="44.1052" lon="3.54197">
        <ele>1345.0937169351</ele>
        <time>2015-05-17T13:55:41Z</time>
      </trkpt>
      <trkpt lat="44.10518" lon="3.54182">
        <ele>1342.2630254398</ele>
        <time>2015-05-17T13:56:00Z</time>
      </trkpt>
      <trkpt lat="44.10518" lon="3.54179">
        <ele>1342.2630254398</ele>
        <time>2015-05-17T13:56:02Z</time>
      </trkpt>
      <trkpt lat="44.10518" lon="3.54182">
        <ele>1342.2630254398</ele>
        <time>2015-05-17T13:56:17Z</time>
      </trkpt>
      <trkpt lat="44.10519" lon="3.54199">
        <ele>1339.8504103607</ele>
        <time>2015-05-17T13:56:22Z</time>
      </trkpt>
      <trkpt lat="44.10512" lon="3.5419">
        <ele>1338.1462656498</ele>
        <time>2015-05-17T13:57:18Z</time>
      </trkpt>
      <trkpt lat="44.10512" lon="3.5419">
        <ele>1338.1462656498</ele>
        <time>2015-05-17T13:57:27Z</time>
      </trkpt>
      <trkpt lat="44.10512" lon="3.54201">
        <ele>1338.1462656498</ele>
        <time>2015-05-17T13:58:17Z</time>
      </trkpt>
      <trkpt lat="44.10511" lon="3.54188">
        <ele>1336.8410016477</ele>
        <time>2015-05-17T13:58:43Z</time>
      </trkpt>
      <trkpt lat="44.1051" lon="3.54186">
        <ele>1336.8410016477</ele>
        <time>2015-05-17T13:59:02Z</time>
      </trkpt>
      <trkpt lat="44.1051" lon="3.54185">
        <ele>1336.8410016477</ele>
        <time>2015-05-17T13:59:07Z</time>
      </trkpt>
      <trkpt lat="44.10509" lon="3.54183">
        <ele>1336.8410016477</ele>
        <time>2015-05-17T13:59:12Z</time>
      </trkpt>
      <trkpt lat="44.10509" lon="3.54182">
        <ele>1336.8410016477</ele>
        <time>2015-05-17T13:59:17Z</time>
      </trkpt>
      <trkpt lat="44.10506" lon="3.54185">
        <ele>1336.8410016477</ele>
        <time>2015-05-17T14:00:22Z</time>
      </trkpt>
      <trkpt lat="44.10514" lon="3.54198">
        <ele>1335.7040868401</ele>
        <time>2015-05-17T14:01:22Z</time>
      </trkpt>
      <trkpt lat="44.10505" lon="3.54189">
        <ele>1334.7806556191</ele>
        <time>2015-05-17T14:01:42Z</time>
      </trkpt>
      <trkpt lat="44.10496" lon="3.54187">
        <ele>1334.7806556191</ele>
        <time>2015-05-17T14:02:32Z</time>
      </trkpt>
      <trkpt lat="44.10496" lon="3.54183">
        <ele>1334.0396910258</ele>
        <time>2015-05-17T14:02:37Z</time>
      </trkpt>
      <trkpt lat="44.10496" lon="3.54183">
        <ele>1334.0396910258</ele>
        <time>2015-05-17T14:02:42Z</time>
      </trkpt>
      <trkpt lat="44.10477" lon="3.54166">
        <ele>1333.3941333177</ele>
        <time>2015-05-17T14:03:22Z</time>
      </trkpt>
      <trkpt lat="44.10471" lon="3.54162">
        <ele>1333.3941333177</ele>
        <time>2015-05-17T14:03:27Z</time>
      </trkpt>
      <trkpt lat="44.10466" lon="3.54159">
        <ele>1332.7917246538</ele>
        <time>2015-05-17T14:03:40Z</time>
      </trkpt>
      <trkpt lat="44.10436" lon="3.54147">
        <ele>1332.4143721453</ele>
        <time>2015-05-17T14:04:08Z</time>
      </trkpt>
      <trkpt lat="44.10411" lon="3.54135">
        <ele>1332.4010537137</ele>
        <time>2015-05-17T14:04:21Z</time>
      </trkpt>
      <trkpt lat="44.10409" lon="3.54134">
        <ele>1332.4010537137</ele>
        <time>2015-05-17T14:04:22Z</time>
      </trkpt>
      <trkpt lat="44.10401" lon="3.54133">
        <ele>1332.5767889077</ele>
        <time>2015-05-17T14:04:27Z</time>
      </trkpt>
      <trkpt lat="44.10392" lon="3.54132">
        <ele>1332.5767889077</ele>
        <time>2015-05-17T14:04:32Z</time>
      </trkpt>
      <trkpt lat="44.10361" lon="3.54115">
        <ele>1332.8509009271</ele>
        <time>2015-05-17T14:04:50Z</time>
      </trkpt>
      <trkpt lat="44.10358" lon="3.5411">
        <ele>1332.8509009271</ele>
        <time>2015-05-17T14:04:57Z</time>
      </trkpt>
      <trkpt lat="44.10333" lon="3.5407">
        <ele>1332.6490629834</ele>
        <time>2015-05-17T14:05:22Z</time>
      </trkpt>
      <trkpt lat="44.10315" lon="3.54138">
        <ele>1332.6365567124</ele>
        <time>2015-05-17T14:06:22Z</time>
      </trkpt>
      <trkpt lat="44.10308" lon="3.54105">
        <ele>1328.8032636259</ele>
        <time>2015-05-17T14:08:22Z</time>
      </trkpt>
      <trkpt lat="44.10285" lon="3.54094">
        <ele>1324.5778409148</ele>
        <time>2015-05-17T14:09:12Z</time>
      </trkpt>
      <trkpt lat="44.10269" lon="3.54106">
        <ele>1320.7459016518</ele>
        <time>2015-05-17T14:09:12Z</time>
      </trkpt>
      <trkpt lat="44.10259" lon="3.54109">
        <ele>1317.4721678145</ele>
        <time>2015-05-17T14:09:27Z</time>
      </trkpt>
      <trkpt lat="44.10247" lon="3.54102">
        <ele>1314.7779381966</ele>
        <time>2015-05-17T14:10:21Z</time>
      </trkpt>
      <trkpt lat="44.1022" lon="3.54103">
        <ele>1312.4939102989</ele>
        <time>2015-05-17T14:10:22Z</time>
      </trkpt>
      <trkpt lat="44.10214" lon="3.541">
        <ele>1312.4939102989</ele>
        <time>2015-05-17T14:10:27Z</time>
      </trkpt>
      <trkpt lat="44.10207" lon="3.54102">
        <ele>1310.5340520483</ele>
        <time>2015-05-17T14:10:32Z</time>
      </trkpt>
      <trkpt lat="44.10173" lon="3.54109">
        <ele>1308.9185479683</ele>
        <time>2015-05-17T14:11:08Z</time>
      </trkpt>
      <trkpt lat="44.10149" lon="3.54118">
        <ele>1307.6074207632</ele>
        <time>2015-05-17T14:11:22Z</time>
      </trkpt>
      <trkpt lat="44.10112" lon="3.54132">
        <ele>1306.4762463884</ele>
        <time>2015-05-17T14:11:57Z</time>
      </trkpt>
      <trkpt lat="44.10093" lon="3.54139">
        <ele>1306.2882604148</ele>
        <time>2015-05-17T14:12:22Z</time>
      </trkpt>
      <trkpt lat="44.10075" lon="3.54185">
        <ele>1307.0273889107</ele>
        <time>2015-05-17T14:13:11Z</time>
      </trkpt>
      <trkpt lat="44.10053" lon="3.54203">
        <ele>1307.9843797468</ele>
        <time>2015-05-17T14:13:22Z</time>
      </trkpt>
      <trkpt lat="44.10045" lon="3.54207">
        <ele>1307.9843797468</ele>
        <time>2015-05-17T14:13:34Z</time>
      </trkpt>
      <trkpt lat="44.10035" lon="3.54216">
        <ele>1309.4237781367</ele>
        <time>2015-05-17T14:13:37Z</time>
      </trkpt>
      <trkpt lat="44.10029" lon="3.54217">
        <ele>1309.4237781367</ele>
        <time>2015-05-17T14:13:42Z</time>
      </trkpt>
      <trkpt lat="44.10024" lon="3.54224">
        <ele>1311.185850795</ele>
        <time>2015-05-17T14:13:47Z</time>
      </trkpt>
      <trkpt lat="44.10022" lon="3.54229">
        <ele>1311.185850795</ele>
        <time>2015-05-17T14:13:52Z</time>
      </trkpt>
      <trkpt lat="44.1002" lon="3.54233">
        <ele>1311.185850795</ele>
        <time>2015-05-17T14:13:57Z</time>
      </trkpt>
      <trkpt lat="44.10017" lon="3.54237">
        <ele>1313.2802602713</ele>
        <time>2015-05-17T14:14:02Z</time>
      </trkpt>
      <trkpt lat="44.10013" lon="3.5424">
        <ele>1313.2802602713</ele>
        <time>2015-05-17T14:14:07Z</time>
      </trkpt>
      <trkpt lat="44.10006" lon="3.54255">
        <ele>1315.4556976115</ele>
        <time>2015-05-17T14:14:22Z</time>
      </trkpt>
      <trkpt lat="44.10003" lon="3.54265">
        <ele>1315.4556976115</ele>
        <time>2015-05-17T14:14:35Z</time>
      </trkpt>
      <trkpt lat="44.09979" lon="3.54304">
        <ele>1317.5224172016</ele>
        <time>2015-05-17T14:15:08Z</time>
      </trkpt>
      <trkpt lat="44.09967" lon="3.54316">
        <ele>1319.3338595564</ele>
        <time>2015-05-17T14:15:21Z</time>
      </trkpt>
      <trkpt lat="44.09958" lon="3.54328">
        <ele>1320.9856672615</ele>
        <time>2015-05-17T14:15:22Z</time>
      </trkpt>
      <trkpt lat="44.09909" lon="3.54359">
        <ele>1322.4661873364</ele>
        <time>2015-05-17T14:16:21Z</time>
      </trkpt>
      <trkpt lat="44.09908" lon="3.54359">
        <ele>1322.4661873364</ele>
        <time>2015-05-17T14:16:22Z</time>
      </trkpt>
      <trkpt lat="44.09904" lon="3.54363">
        <ele>1322.4661873364</ele>
        <time>2015-05-17T14:16:33Z</time>
      </trkpt>
      <trkpt lat="44.09899" lon="3.54371">
        <ele>1323.9093899853</ele>
        <time>2015-05-17T14:16:44Z</time>
      </trkpt>
      <trkpt lat="44.09874" lon="3.54401">
        <ele>1325.3820522454</ele>
        <time>2015-05-17T14:16:57Z</time>
      </trkpt>
      <trkpt lat="44.09868" lon="3.54403">
        <ele>1325.3820522454</ele>
        <time>2015-05-17T14:17:06Z</time>
      </trkpt>
      <trkpt lat="44.09865" lon="3.54403">
        <ele>1325.3820522454</ele>
        <time>2015-05-17T14:17:11Z</time>
      </trkpt>
      <trkpt lat="44.09851" lon="3.5441">
        <ele>1326.9461616373</ele>
        <time>2015-05-17T14:17:22Z</time>
      </trkpt>
      <trkpt lat="44.09802" lon="3.54466">
        <ele>1328.8320370801</ele>
        <time>2015-05-17T14:18:06Z</time>
      </trkpt>
      <trkpt lat="44.098" lon="3.54468">
        <ele>1328.8320370801</ele>
        <time>2015-05-17T14:18:10Z</time>
      </trkpt>
      <trkpt lat="44.09764" lon="3.54508">
        <ele>1330.7191813811</ele>
        <time>2015-05-17T14:18:43Z</time>
      </trkpt>
      <trkpt lat="44.09741" lon="3.54519">
        <ele>1332.2388064456</ele>
        <time>2015-05-17T14:19:07Z</time>
      </trkpt>
      <trkpt lat="44.09724" lon="3.54541">
        <ele>1332.7622535388</ele>
        <time>2015-05-17T14:19:22Z</time>
      </trkpt>
      <trkpt lat="44.09722" lon="3.54553">
        <ele>1332.7622535388</ele>
        <time>2015-05-17T14:19:32Z</time>
      </trkpt>
      <trkpt lat="44.09718" lon="3.54556">
        <ele>1332.7909043246</ele>
        <time>2015-05-17T14:19:37Z</time>
      </trkpt>
      <trkpt lat="44.09713" lon="3.5456">
        <ele>1332.7909043246</ele>
        <time>2015-05-17T14:19:42Z</time>
      </trkpt>
      <trkpt lat="44.09708" lon="3.54564">
        <ele>1332.7621033424</ele>
        <time>2015-05-17T14:19:47Z</time>
      </trkpt>
      <trkpt lat="44.09703" lon="3.54565">
        <ele>1332.7621033424</ele>
        <time>2015-05-17T14:19:52Z</time>
      </trkpt>
      <trkpt lat="44.09699" lon="3.54568">
        <ele>1332.6635280224</ele>
        <time>2015-05-17T14:19:57Z</time>
      </trkpt>
      <trkpt lat="44.09672" lon="3.54573">
        <ele>1332.5418125803</ele>
        <time>2015-05-17T14:20:23Z</time>
      </trkpt>
      <trkpt lat="44.09664" lon="3.54582">
        <ele>1332.3395531829</ele>
        <time>2015-05-17T14:20:31Z</time>
      </trkpt>
      <trkpt lat="44.09643" lon="3.54584">
        <ele>1331.8310444861</ele>
        <time>2015-05-17T14:20:52Z</time>
      </trkpt>
      <trkpt lat="44.09657" lon="3.54589">
        <ele>1330.8514301652</ele>
        <time>2015-05-17T14:21:21Z</time>
      </trkpt>
      <trkpt lat="44.09658" lon="3.54589">
        <ele>1330.8514301652</ele>
        <time>2015-05-17T14:21:22Z</time>
      </trkpt>
      <trkpt lat="44.09713" lon="3.54585">
        <ele>1331.5119965306</ele>
        <time>2015-05-17T14:22:21Z</time>
      </trkpt>
      <trkpt lat="44.09714" lon="3.54584">
        <ele>1331.5119965306</ele>
        <time>2015-05-17T14:22:22Z</time>
      </trkpt>
      <trkpt lat="44.09717" lon="3.54581">
        <ele>1331.5119965306</ele>
        <time>2015-05-17T14:22:27Z</time>
      </trkpt>
      <trkpt lat="44.09719" lon="3.54577">
        <ele>1331.5119965306</ele>
        <time>2015-05-17T14:22:32Z</time>
      </trkpt>
      <trkpt lat="44.09724" lon="3.54549">
        <ele>1332.8390347667</ele>
        <time>2015-05-17T14:22:46Z</time>
      </trkpt>
      <trkpt lat="44.09724" lon="3.54543">
        <ele>1332.8390347667</ele>
        <time>2015-05-17T14:22:47Z</time>
      </trkpt>
      <trkpt lat="44.09726" lon="3.54531">
        <ele>1334.2745122992</ele>
        <time>2015-05-17T14:22:52Z</time>
      </trkpt>
      <trkpt lat="44.09726" lon="3.54519">
        <ele>1334.2745122992</ele>
        <time>2015-05-17T14:22:57Z</time>
      </trkpt>
      <trkpt lat="44.09726" lon="3.54507">
        <ele>1335.7912127508</ele>
        <time>2015-05-17T14:23:02Z</time>
      </trkpt>
      <trkpt lat="44.09727" lon="3.54503">
        <ele>1335.7912127508</ele>
        <time>2015-05-17T14:23:07Z</time>
      </trkpt>
      <trkpt lat="44.09727" lon="3.54493">
        <ele>1337.4358988967</ele>
        <time>2015-05-17T14:23:12Z</time>
      </trkpt>
      <trkpt lat="44.09729" lon="3.54473">
        <ele>1339.0211167117</ele>
        <time>2015-05-17T14:23:21Z</time>
      </trkpt>
      <trkpt lat="44.09729" lon="3.54472">
        <ele>1339.0211167117</ele>
        <time>2015-05-17T14:23:22Z</time>
      </trkpt>
      <trkpt lat="44.0973" lon="3.54461">
        <ele>1340.6761410287</ele>
        <time>2015-05-17T14:23:30Z</time>
      </trkpt>
      <trkpt lat="44.09736" lon="3.54397">
        <ele>1343.6159624926</ele>
        <time>2015-05-17T14:24:22Z</time>
      </trkpt>
      <trkpt lat="44.09735" lon="3.54387">
        <ele>1343.6159624926</ele>
        <time>2015-05-17T14:25:01Z</time>
      </trkpt>
      <trkpt lat="44.09741" lon="3.54301">
        <ele>1348.1990978806</ele>
        <time>2015-05-17T14:25:24Z</time>
      </trkpt>
      <trkpt lat="44.0974" lon="3.54298">
        <ele>1348.1990978806</ele>
        <time>2015-05-17T14:25:33Z</time>
      </trkpt>
      <trkpt lat="44.09735" lon="3.54237">
        <ele>1353.7301145053</ele>
        <time>2015-05-17T14:26:21Z</time>
      </trkpt>
      <trkpt lat="44.09728" lon="3.54213">
        <ele>1359.245168149</ele>
        <time>2015-05-17T14:26:22Z</time>
      </trkpt>
      <trkpt lat="44.09729" lon="3.54168">
        <ele>1364.7593938303</ele>
        <time>2015-05-17T14:26:47Z</time>
      </trkpt>
      <trkpt lat="44.09737" lon="3.5406">
        <ele>1370.9788087254</ele>
        <time>2015-05-17T14:27:22Z</time>
      </trkpt>
      <trkpt lat="44.09741" lon="3.54045">
        <ele>1376.7977159575</ele>
        <time>2015-05-17T14:27:34Z</time>
      </trkpt>
      <trkpt lat="44.09708" lon="3.53952">
        <ele>1383.0521089406</ele>
        <time>2015-05-17T14:28:22Z</time>
      </trkpt>
      <trkpt lat="44.09683" lon="3.53927">
        <ele>1388.9592786412</ele>
        <time>2015-05-17T14:29:07Z</time>
      </trkpt>
      <trkpt lat="44.09632" lon="3.53923">
        <ele>1394.6023613215</ele>
        <time>2015-05-17T14:29:22Z</time>
      </trkpt>
      <trkpt lat="44.09623" lon="3.53926">
        <ele>1399.6703937719</ele>
        <time>2015-05-17T14:29:33Z</time>
      </trkpt>
      <trkpt lat="44.09565" lon="3.53962">
        <ele>1404.5833924724</ele>
        <time>2015-05-17T14:30:10Z</time>
      </trkpt>
      <trkpt lat="44.09555" lon="3.53972">
        <ele>1409.0540172301</ele>
        <time>2015-05-17T14:30:13Z</time>
      </trkpt>
      <trkpt lat="44.09545" lon="3.53981">
        <ele>1413.1491191422</ele>
        <time>2015-05-17T14:30:23Z</time>
      </trkpt>
      <trkpt lat="44.09541" lon="3.53985">
        <ele>1413.1491191422</ele>
        <time>2015-05-17T14:30:35Z</time>
      </trkpt>
      <trkpt lat="44.09494" lon="3.54063">
        <ele>1417.4220548799</ele>
        <time>2015-05-17T14:31:22Z</time>
      </trkpt>
      <trkpt lat="44.09492" lon="3.54076">
        <ele>1420.9731228584</ele>
        <time>2015-05-17T14:31:27Z</time>
      </trkpt>
      <trkpt lat="44.09476" lon="3.54087">
        <ele>1423.9654751251</ele>
        <time>2015-05-17T14:32:05Z</time>
      </trkpt>
      <trkpt lat="44.09468" lon="3.54126">
        <ele>1426.3360360606</ele>
        <time>2015-05-17T14:32:09Z</time>
      </trkpt>
      <trkpt lat="44.09447" lon="3.541">
        <ele>1427.5672904522</ele>
        <time>2015-05-17T14:32:22Z</time>
      </trkpt>
      <trkpt lat="44.09435" lon="3.54097">
        <ele>1427.9758608994</ele>
        <time>2015-05-17T14:32:45Z</time>
      </trkpt>
      <trkpt lat="44.09428" lon="3.54119">
        <ele>1427.5838913687</ele>
        <time>2015-05-17T14:33:02Z</time>
      </trkpt>
      <trkpt lat="44.09417" lon="3.54137">
        <ele>1426.2991032843</ele>
        <time>2015-05-17T14:33:22Z</time>
      </trkpt>
      <trkpt lat="44.09413" lon="3.54161">
        <ele>1424.6007412595</ele>
        <time>2015-05-17T14:33:38Z</time>
      </trkpt>
      <trkpt lat="44.09412" lon="3.54132">
        <ele>1417.1264776819</ele>
        <time>2015-05-17T14:34:07Z</time>
      </trkpt>
      <trkpt lat="44.09398" lon="3.54163">
        <ele>1407.7870260838</ele>
        <time>2015-05-17T14:34:22Z</time>
      </trkpt>
      <trkpt lat="44.09397" lon="3.54172">
        <ele>1407.7870260838</ele>
        <time>2015-05-17T14:34:30Z</time>
      </trkpt>
      <trkpt lat="44.09376" lon="3.54217">
        <ele>1395.2248130756</ele>
        <time>2015-05-17T14:34:52Z</time>
      </trkpt>
      <trkpt lat="44.09369" lon="3.54289">
        <ele>1380.0211494839</ele>
        <time>2015-05-17T14:35:23Z</time>
      </trkpt>
      <trkpt lat="44.09338" lon="3.54471">
        <ele>1360.8339808208</ele>
        <time>2015-05-17T14:37:22Z</time>
      </trkpt>
      <trkpt lat="44.0932" lon="3.54481">
        <ele>1342.7571486336</ele>
        <time>2015-05-17T14:37:31Z</time>
      </trkpt>
      <trkpt lat="44.09301" lon="3.545">
        <ele>1325.4916415128</ele>
        <time>2015-05-17T14:37:47Z</time>
      </trkpt>
      <trkpt lat="44.09275" lon="3.54522">
        <ele>1309.0601633505</ele>
        <time>2015-05-17T14:38:12Z</time>
      </trkpt>
      <trkpt lat="44.09272" lon="3.54523">
        <ele>1309.0601633505</ele>
        <time>2015-05-17T14:38:12Z</time>
      </trkpt>
      <trkpt lat="44.0927" lon="3.54543">
        <ele>1293.5383320398</ele>
        <time>2015-05-17T14:38:29Z</time>
      </trkpt>
      <trkpt lat="44.0927" lon="3.54549">
        <ele>1293.5383320398</ele>
        <time>2015-05-17T14:38:29Z</time>
      </trkpt>
      <trkpt lat="44.09265" lon="3.54592">
        <ele>1278.2722819158</ele>
        <time>2015-05-17T14:39:20Z</time>
      </trkpt>
      <trkpt lat="44.09263" lon="3.5461">
        <ele>1263.9947937204</ele>
        <time>2015-05-17T14:39:22Z</time>
      </trkpt>
      <trkpt lat="44.09261" lon="3.54624">
        <ele>1250.991977228</ele>
        <time>2015-05-17T14:39:37Z</time>
      </trkpt>
      <trkpt lat="44.0925" lon="3.54642">
        <ele>1239.0343527429</ele>
        <time>2015-05-17T14:39:58Z</time>
      </trkpt>
      <trkpt lat="44.0925" lon="3.54682">
        <ele>1228.2223572861</ele>
        <time>2015-05-17T14:40:12Z</time>
      </trkpt>
      <trkpt lat="44.09247" lon="3.54705">
        <ele>1218.5294742218</ele>
        <time>2015-05-17T14:40:24Z</time>
      </trkpt>
      <trkpt lat="44.09246" lon="3.54709">
        <ele>1218.5294742218</ele>
        <time>2015-05-17T14:40:31Z</time>
      </trkpt>
      <trkpt lat="44.09246" lon="3.54718">
        <ele>1209.854861493</ele>
        <time>2015-05-17T14:40:39Z</time>
      </trkpt>
      <trkpt lat="44.0926" lon="3.54733">
        <ele>1202.0867460647</ele>
        <time>2015-05-17T14:40:47Z</time>
      </trkpt>
      <trkpt lat="44.09273" lon="3.54728">
        <ele>1194.8153359689</ele>
        <time>2015-05-17T14:41:17Z</time>
      </trkpt>
      <trkpt lat="44.0928" lon="3.54728">
        <ele>1194.8153359689</ele>
        <time>2015-05-17T14:42:11Z</time>
      </trkpt>
      <trkpt lat="44.09279" lon="3.54732">
        <ele>1188.3934898106</ele>
        <time>2015-05-17T14:42:23Z</time>
      </trkpt>
      <trkpt lat="44.09274" lon="3.54722">
        <ele>1188.3934898106</ele>
        <time>2015-05-17T14:42:52Z</time>
      </trkpt>
      <trkpt lat="44.09274" lon="3.54722">
        <ele>1182.8565488945</ele>
        <time>2015-05-17T14:42:57Z</time>
      </trkpt>
      <trkpt lat="44.09273" lon="3.54724">
        <ele>1182.8565488945</ele>
        <time>2015-05-17T14:43:07Z</time>
      </trkpt>
      <trkpt lat="44.09275" lon="3.54727">
        <ele>1182.8565488945</ele>
        <time>2015-05-17T14:43:12Z</time>
      </trkpt>
      <trkpt lat="44.09275" lon="3.54729">
        <ele>1182.8565488945</ele>
        <time>2015-05-17T14:43:17Z</time>
      </trkpt>
      <trkpt lat="44.09279" lon="3.54737">
        <ele>1178.00324899</ele>
        <time>2015-05-17T14:43:22Z</time>
      </trkpt>
    </trkseg>
  </trk>
</gpx>